Wetterdaten: Sonntag, 01.03.2026
Datum Zeit Temp. Aussen Temp. o. S. Temp +5cm Feuchte Auss Luftdruck Regen Sonnenschein Solar Windböen Empfang
01.03.2026 00:00 7,0 °C 6,1 °C 2,8 °C 93 % 1024,0 hPa 0,0 l/m² 0 min 0 W/m² 6,4 km/h (2 Bft) 97,87 %
01.03.2026 00:02 7,0 °C 6,1 °C 2,8 °C 93 % 1024,0 hPa 0,0 l/m² 0 min 0 W/m² 6,4 km/h (2 Bft) 97,22 %
01.03.2026 00:04 6,9 °C 6,1 °C 2,8 °C 93 % 1024,0 hPa 0,0 l/m² 0 min 0 W/m² 6,4 km/h (2 Bft) 94,00 %
01.03.2026 00:07 6,9 °C 6,1 °C 2,8 °C 93 % 1024,0 hPa 0,0 l/m² 0 min 0 W/m² 12,9 km/h (3 Bft) 94,00 %
01.03.2026 00:08 6,9 °C 6,1 °C 2,8 °C 92 % 1024,0 hPa 0,0 l/m² 0 min 0 W/m² 12,9 km/h (3 Bft) 95,83 %
01.03.2026 00:12 6,8 °C 6,1 °C 2,8 °C 92 % 1024,0 hPa 0,0 l/m² 0 min 0 W/m² 12,9 km/h (3 Bft) 95,65 %
01.03.2026 00:14 6,8 °C 6,1 °C 2,8 °C 92 % 1024,0 hPa 0,0 l/m² 0 min 0 W/m² 9,7 km/h (2 Bft) 96,23 %
01.03.2026 00:16 6,8 °C 6,1 °C 2,8 °C 92 % 1024,0 hPa 0,0 l/m² 0 min 0 W/m² 6,4 km/h (2 Bft) 95,65 %
01.03.2026 00:18 6,7 °C 6,1 °C 2,8 °C 91 % 1024,0 hPa 0,0 l/m² 0 min 0 W/m² 6,4 km/h (2 Bft) 100,00 %
01.03.2026 00:20 6,7 °C 6,1 °C 2,8 °C 91 % 1023,9 hPa 0,0 l/m² 0 min 0 W/m² 12,9 km/h (3 Bft) 97,87 %
01.03.2026 00:22 6,7 °C 6,1 °C 2,8 °C 91 % 1023,9 hPa 0,0 l/m² 0 min 0 W/m² 9,7 km/h (2 Bft) 93,62 %
01.03.2026 00:24 6,7 °C 5,6 °C 2,8 °C 91 % 1024,0 hPa 0,0 l/m² 0 min 0 W/m² 6,4 km/h (2 Bft) 97,87 %
01.03.2026 00:26 6,6 °C 5,6 °C 2,8 °C 91 % 1024,0 hPa 0,0 l/m² 0 min 0 W/m² 12,9 km/h (3 Bft) 100,00 %
01.03.2026 00:28 6,6 °C 5,6 °C 2,8 °C 91 % 1024,0 hPa 0,0 l/m² 0 min 0 W/m² 12,9 km/h (3 Bft) 95,74 %
01.03.2026 00:30 6,6 °C 5,6 °C 2,2 °C 90 % 1024,0 hPa 0,0 l/m² 0 min 0 W/m² 9,7 km/h (2 Bft) 95,74 %
01.03.2026 00:32 6,6 °C 5,6 °C 2,2 °C 90 % 1024,0 hPa 0,0 l/m² 0 min 0 W/m² 9,7 km/h (2 Bft) 95,74 %
01.03.2026 00:34 6,5 °C 5,6 °C 2,2 °C 90 % 1024,0 hPa 0,0 l/m² 0 min 0 W/m² 6,4 km/h (2 Bft) 95,74 %
01.03.2026 00:36 6,5 °C 5,6 °C 2,2 °C 90 % 1024,0 hPa 0,0 l/m² 0 min 0 W/m² 9,7 km/h (2 Bft) 95,74 %
01.03.2026 00:38 6,5 °C 5,6 °C 2,2 °C 90 % 1024,0 hPa 0,0 l/m² 0 min 0 W/m² 6,4 km/h (2 Bft) 93,48 %
01.03.2026 00:40 6,5 °C 5,6 °C 2,2 °C 90 % 1024,0 hPa 0,0 l/m² 0 min 0 W/m² 12,9 km/h (3 Bft) 93,62 %
01.03.2026 00:42 6,4 °C 5,6 °C 2,2 °C 89 % 1024,1 hPa 0,0 l/m² 0 min 0 W/m² 16,1 km/h (3 Bft) 93,62 %
01.03.2026 00:44 6,4 °C 5,6 °C 2,2 °C 89 % 1024,0 hPa 0,0 l/m² 0 min 0 W/m² 12,9 km/h (3 Bft) 95,74 %
01.03.2026 00:46 6,4 °C 5,6 °C 2,2 °C 89 % 1024,0 hPa 0,0 l/m² 0 min 0 W/m² 9,7 km/h (2 Bft) 95,74 %
01.03.2026 00:48 6,4 °C 5,6 °C 2,2 °C 89 % 1024,0 hPa 0,0 l/m² 0 min 0 W/m² 3,2 km/h (1 Bft) 95,74 %
01.03.2026 00:50 6,3 °C 5,6 °C 2,2 °C 89 % 1024,0 hPa 0,0 l/m² 0 min 0 W/m² 9,7 km/h (2 Bft) 95,65 %
01.03.2026 00:52 6,3 °C 5,6 °C 2,2 °C 89 % 1024,0 hPa 0,0 l/m² 0 min 0 W/m² 6,4 km/h (2 Bft) 95,74 %
01.03.2026 00:54 6,3 °C 5,6 °C 2,2 °C 89 % 1024,0 hPa 0,0 l/m² 0 min 0 W/m² 3,2 km/h (1 Bft) 95,74 %
01.03.2026 00:56 6,3 °C 5,0 °C 2,2 °C 89 % 1024,0 hPa 0,0 l/m² 0 min 0 W/m² 12,9 km/h (3 Bft) 91,49 %
01.03.2026 00:58 6,3 °C 5,0 °C 2,2 °C 89 % 1024,0 hPa 0,0 l/m² 0 min 0 W/m² 6,4 km/h (2 Bft) 95,74 %
01.03.2026 01:00 6,2 °C 5,0 °C 2,2 °C 89 % 1024,0 hPa 0,0 l/m² 0 min 0 W/m² 9,7 km/h (2 Bft) 97,67 %
01.03.2026 01:02 6,2 °C 5,6 °C 2,2 °C 89 % 1024,0 hPa 0,0 l/m² 0 min 0 W/m² 16,1 km/h (3 Bft) 98,00 %
01.03.2026 01:04 6,2 °C 5,0 °C 2,2 °C 89 % 1024,0 hPa 0,0 l/m² 0 min 0 W/m² 6,4 km/h (2 Bft) 97,83 %
01.03.2026 01:06 6,2 °C 5,0 °C 2,2 °C 89 % 1024,0 hPa 0,0 l/m² 0 min 0 W/m² 9,7 km/h (2 Bft) 97,87 %
01.03.2026 01:08 6,1 °C 5,0 °C 2,2 °C 88 % 1024,0 hPa 0,0 l/m² 0 min 0 W/m² 12,9 km/h (3 Bft) 97,87 %
01.03.2026 01:10 6,1 °C 5,0 °C 2,2 °C 88 % 1024,0 hPa 0,0 l/m² 0 min 0 W/m² 6,4 km/h (2 Bft) 95,74 %
01.03.2026 01:12 6,1 °C 5,0 °C 2,2 °C 88 % 1024,0 hPa 0,0 l/m² 0 min 0 W/m² 12,9 km/h (3 Bft) 97,87 %
01.03.2026 01:14 6,1 °C 5,0 °C 1,7 °C 88 % 1024,0 hPa 0,0 l/m² 0 min 0 W/m² 3,2 km/h (1 Bft) 38,24 %
01.03.2026 01:16 6,1 °C 5,0 °C 1,7 °C 88 % 1024,1 hPa 0,0 l/m² 0 min 0 W/m² 6,4 km/h (2 Bft) 100,00 %
01.03.2026 01:18 6,0 °C 5,0 °C 1,7 °C 88 % 1024,1 hPa 0,0 l/m² 0 min 0 W/m² 6,4 km/h (2 Bft) 100,00 %
01.03.2026 01:20 6,0 °C 5,0 °C 1,7 °C 88 % 1024,0 hPa 0,0 l/m² 0 min 0 W/m² 9,7 km/h (2 Bft) 100,00 %
01.03.2026 01:22 5,9 °C 5,0 °C 1,7 °C 88 % 1024,0 hPa 0,0 l/m² 0 min 0 W/m² 9,7 km/h (2 Bft) 100,00 %
01.03.2026 01:24 5,9 °C 5,0 °C 1,7 °C 88 % 1024,0 hPa 0,0 l/m² 0 min 0 W/m² 6,4 km/h (2 Bft) 95,74 %
01.03.2026 01:26 5,9 °C 5,0 °C 1,7 °C 88 % 1024,0 hPa 0,0 l/m² 0 min 0 W/m² 3,2 km/h (1 Bft) 95,74 %
01.03.2026 01:28 5,9 °C 5,0 °C 1,7 °C 88 % 1024,1 hPa 0,0 l/m² 0 min 0 W/m² 9,7 km/h (2 Bft) 95,65 %
01.03.2026 01:30 5,9 °C 5,0 °C 1,7 °C 88 % 1024,1 hPa 0,0 l/m² 0 min 0 W/m² 6,4 km/h (2 Bft) 97,87 %
01.03.2026 01:32 5,8 °C 5,0 °C 1,7 °C 88 % 1024,1 hPa 0,0 l/m² 0 min 0 W/m² 9,7 km/h (2 Bft) 97,87 %
01.03.2026 01:34 5,8 °C 5,0 °C 1,7 °C 88 % 1024,1 hPa 0,0 l/m² 0 min 0 W/m² 12,9 km/h (3 Bft) 97,87 %
01.03.2026 01:36 5,8 °C 5,0 °C 1,7 °C 88 % 1024,1 hPa 0,0 l/m² 0 min 0 W/m² 12,9 km/h (3 Bft) 97,87 %
01.03.2026 01:38 5,8 °C 5,0 °C 1,7 °C 88 % 1024,0 hPa 0,0 l/m² 0 min 0 W/m² 6,4 km/h (2 Bft) 97,83 %
01.03.2026 01:40 5,8 °C 5,0 °C 1,7 °C 88 % 1024,1 hPa 0,0 l/m² 0 min 0 W/m² 12,9 km/h (3 Bft) 97,87 %
01.03.2026 01:42 5,8 °C 5,0 °C 1,7 °C 88 % 1024,1 hPa 0,0 l/m² 0 min 0 W/m² 16,1 km/h (3 Bft) 93,62 %
01.03.2026 01:44 5,7 °C 5,0 °C 1,7 °C 88 % 1024,0 hPa 0,0 l/m² 0 min 0 W/m² 6,4 km/h (2 Bft) 97,87 %
01.03.2026 01:46 5,7 °C 4,4 °C 1,7 °C 88 % 1024,1 hPa 0,0 l/m² 0 min 0 W/m² 6,4 km/h (2 Bft) 97,87 %
01.03.2026 01:48 5,7 °C 4,4 °C 1,7 °C 88 % 1024,0 hPa 0,0 l/m² 0 min 0 W/m² 9,7 km/h (2 Bft) 100,00 %
01.03.2026 01:50 5,7 °C 4,4 °C 1,7 °C 87 % 1024,1 hPa 0,0 l/m² 0 min 0 W/m² 9,7 km/h (2 Bft) 100,00 %
01.03.2026 01:52 5,6 °C 4,4 °C 1,7 °C 88 % 1024,1 hPa 0,0 l/m² 0 min 0 W/m² 6,4 km/h (2 Bft) 97,87 %
01.03.2026 01:54 5,6 °C 4,4 °C 1,7 °C 88 % 1024,2 hPa 0,0 l/m² 0 min 0 W/m² 6,4 km/h (2 Bft) 97,87 %
01.03.2026 01:56 5,6 °C 4,4 °C 1,7 °C 88 % 1024,1 hPa 0,0 l/m² 0 min 0 W/m² 6,4 km/h (2 Bft) 100,00 %
01.03.2026 01:58 5,6 °C 4,4 °C 1,1 °C 88 % 1024,2 hPa 0,0 l/m² 0 min 0 W/m² 0,0 km/h (0 Bft) 97,87 %
01.03.2026 02:00 5,6 °C 4,4 °C 1,1 °C 88 % 1024,2 hPa 0,0 l/m² 0 min 0 W/m² 6,4 km/h (2 Bft) 97,37 %
01.03.2026 02:02 5,5 °C 4,4 °C 1,1 °C 88 % 1024,2 hPa 0,0 l/m² 0 min 0 W/m² 6,4 km/h (2 Bft) 100,00 %
01.03.2026 02:04 5,4 °C 4,4 °C 1,1 °C 88 % 1024,2 hPa 0,0 l/m² 0 min 0 W/m² 6,4 km/h (2 Bft) 100,00 %
01.03.2026 02:06 5,4 °C 4,4 °C 1,1 °C 88 % 1024,2 hPa 0,0 l/m² 0 min 0 W/m² 6,4 km/h (2 Bft) 100,00 %
01.03.2026 02:08 5,4 °C 4,4 °C 1,1 °C 87 % 1024,2 hPa 0,0 l/m² 0 min 0 W/m² 6,4 km/h (2 Bft) 100,00 %
01.03.2026 02:10 5,4 °C 4,4 °C 1,1 °C 88 % 1024,2 hPa 0,0 l/m² 0 min 0 W/m² 6,4 km/h (2 Bft) 97,83 %
01.03.2026 02:12 5,3 °C 4,4 °C 1,1 °C 88 % 1024,2 hPa 0,0 l/m² 0 min 0 W/m² 6,4 km/h (2 Bft) 100,00 %
01.03.2026 02:14 5,3 °C 4,4 °C 1,1 °C 88 % 1024,3 hPa 0,0 l/m² 0 min 0 W/m² 9,7 km/h (2 Bft) 53,49 %
01.03.2026 02:16 5,3 °C 4,4 °C 1,1 °C 88 % 1024,3 hPa 0,0 l/m² 0 min 0 W/m² 12,9 km/h (3 Bft) 100,00 %
01.03.2026 02:18 5,3 °C 4,4 °C 1,1 °C 88 % 1024,2 hPa 0,0 l/m² 0 min 0 W/m² 6,4 km/h (2 Bft) 97,87 %
01.03.2026 02:20 5,2 °C 4,4 °C 1,1 °C 88 % 1024,2 hPa 0,0 l/m² 0 min 0 W/m² 3,2 km/h (1 Bft) 100,00 %
01.03.2026 02:22 5,2 °C 4,4 °C 1,1 °C 88 % 1024,2 hPa 0,0 l/m² 0 min 0 W/m² 6,4 km/h (2 Bft) 100,00 %
01.03.2026 02:24 5,2 °C 4,4 °C 1,1 °C 88 % 1024,2 hPa 0,0 l/m² 0 min 0 W/m² 6,4 km/h (2 Bft) 100,00 %
01.03.2026 02:26 5,2 °C 3,9 °C 1,1 °C 88 % 1024,2 hPa 0,0 l/m² 0 min 0 W/m² 6,4 km/h (2 Bft) 95,65 %
01.03.2026 02:28 5,2 °C 3,9 °C 1,1 °C 88 % 1024,2 hPa 0,0 l/m² 0 min 0 W/m² 6,4 km/h (2 Bft) 97,87 %
01.03.2026 02:30 5,2 °C 3,9 °C 1,1 °C 88 % 1024,2 hPa 0,0 l/m² 0 min 0 W/m² 6,4 km/h (2 Bft) 97,87 %
01.03.2026 02:32 5,1 °C 3,9 °C 1,1 °C 88 % 1024,2 hPa 0,0 l/m² 0 min 0 W/m² 3,2 km/h (1 Bft) 97,96 %
01.03.2026 02:34 5,1 °C 3,9 °C 1,1 °C 88 % 1024,2 hPa 0,0 l/m² 0 min 0 W/m² 6,4 km/h (2 Bft) 97,83 %
01.03.2026 02:36 5,1 °C 3,9 °C 1,1 °C 88 % 1024,1 hPa 0,0 l/m² 0 min 0 W/m² 6,4 km/h (2 Bft) 97,87 %
01.03.2026 02:38 5,1 °C 3,9 °C 1,1 °C 88 % 1024,2 hPa 0,0 l/m² 0 min 0 W/m² 6,4 km/h (2 Bft) 97,87 %
01.03.2026 02:40 5,1 °C 3,9 °C 1,1 °C 88 % 1024,2 hPa 0,0 l/m² 0 min 0 W/m² 6,4 km/h (2 Bft) 95,74 %
01.03.2026 02:42 5,1 °C 3,9 °C 1,1 °C 88 % 1024,2 hPa 0,0 l/m² 0 min 0 W/m² 3,2 km/h (1 Bft) 97,87 %
01.03.2026 02:44 5,0 °C 3,9 °C 1,1 °C 88 % 1024,2 hPa 0,0 l/m² 0 min 0 W/m² 0,0 km/h (0 Bft) 97,87 %
01.03.2026 02:46 5,0 °C 3,9 °C 1,1 °C 88 % 1024,2 hPa 0,0 l/m² 0 min 0 W/m² 0,0 km/h (0 Bft) 97,83 %
01.03.2026 02:48 5,0 °C 3,9 °C 1,1 °C 88 % 1024,2 hPa 0,0 l/m² 0 min 0 W/m² 3,2 km/h (1 Bft) 97,87 %
01.03.2026 02:50 4,9 °C 3,9 °C 1,1 °C 88 % 1024,2 hPa 0,0 l/m² 0 min 0 W/m² 3,2 km/h (1 Bft) 97,87 %
01.03.2026 02:52 4,9 °C 3,9 °C 0,6 °C 88 % 1024,2 hPa 0,0 l/m² 0 min 0 W/m² 3,2 km/h (1 Bft) 97,14 %
01.03.2026 02:54 4,9 °C 3,9 °C 0,6 °C 88 % 1024,1 hPa 0,0 l/m² 0 min 0 W/m² 3,2 km/h (1 Bft) 97,87 %
01.03.2026 02:56 4,9 °C 3,9 °C 0,6 °C 88 % 1024,1 hPa 0,0 l/m² 0 min 0 W/m² 3,2 km/h (1 Bft) 95,74 %
01.03.2026 02:58 4,9 °C 3,3 °C 0,6 °C 88 % 1024,1 hPa 0,0 l/m² 0 min 0 W/m² 3,2 km/h (1 Bft) 95,74 %
01.03.2026 03:00 4,8 °C 3,3 °C 0,6 °C 88 % 1024,1 hPa 0,0 l/m² 0 min 0 W/m² 3,2 km/h (1 Bft) 92,45 %
01.03.2026 03:02 4,8 °C 3,3 °C 0,6 °C 88 % 1024,1 hPa 0,0 l/m² 0 min 0 W/m² 3,2 km/h (1 Bft) 95,74 %
01.03.2026 03:04 4,8 °C 3,3 °C 0,6 °C 88 % 1024,1 hPa 0,0 l/m² 0 min 0 W/m² 3,2 km/h (1 Bft) 97,62 %
01.03.2026 03:06 4,8 °C 3,3 °C 0,6 °C 88 % 1024,1 hPa 0,0 l/m² 0 min 0 W/m² 3,2 km/h (1 Bft) 98,18 %
01.03.2026 03:08 4,7 °C 3,3 °C 0,6 °C 88 % 1024,1 hPa 0,0 l/m² 0 min 0 W/m² 6,4 km/h (2 Bft) 97,92 %
01.03.2026 03:10 4,7 °C 3,3 °C 0,6 °C 88 % 1024,1 hPa 0,0 l/m² 0 min 0 W/m² 3,2 km/h (1 Bft) 97,87 %
01.03.2026 03:12 4,7 °C 3,3 °C 0,6 °C 88 % 1024,2 hPa 0,0 l/m² 0 min 0 W/m² 3,2 km/h (1 Bft) 97,83 %
01.03.2026 03:14 4,6 °C 3,3 °C 0,6 °C 88 % 1024,2 hPa 0,0 l/m² 0 min 0 W/m² 3,2 km/h (1 Bft) 95,74 %
01.03.2026 03:16 4,6 °C 3,3 °C 0,6 °C 89 % 1024,1 hPa 0,0 l/m² 0 min 0 W/m² 3,2 km/h (1 Bft) 97,87 %
01.03.2026 03:18 4,6 °C 3,3 °C 0,6 °C 89 % 1024,1 hPa 0,0 l/m² 0 min 0 W/m² 9,7 km/h (2 Bft) 97,87 %
01.03.2026 03:20 4,6 °C 3,3 °C 0,6 °C 88 % 1024,1 hPa 0,0 l/m² 0 min 0 W/m² 6,4 km/h (2 Bft) 96,15 %
01.03.2026 03:22 4,6 °C 3,3 °C 0,6 °C 89 % 1024,1 hPa 0,0 l/m² 0 min 0 W/m² 6,4 km/h (2 Bft) 96,92 %
01.03.2026 03:24 4,6 °C 3,3 °C 0,6 °C 89 % 1024,1 hPa 0,0 l/m² 0 min 0 W/m² 12,9 km/h (3 Bft) 95,65 %
01.03.2026 03:26 4,5 °C 3,9 °C 0,6 °C 89 % 1024,1 hPa 0,0 l/m² 0 min 0 W/m² 9,7 km/h (2 Bft) 100,00 %
01.03.2026 03:28 4,5 °C 3,9 °C 0,6 °C 89 % 1024,1 hPa 0,0 l/m² 0 min 0 W/m² 9,7 km/h (2 Bft) 100,00 %
01.03.2026 03:30 4,4 °C 3,9 °C 0,6 °C 89 % 1024,1 hPa 0,0 l/m² 0 min 0 W/m² 12,9 km/h (3 Bft) 100,00 %
01.03.2026 03:32 4,5 °C 3,9 °C 0,6 °C 89 % 1024,1 hPa 0,0 l/m² 0 min 0 W/m² 12,9 km/h (3 Bft) 100,00 %
01.03.2026 03:34 4,4 °C 3,9 °C 0,6 °C 89 % 1024,1 hPa 0,0 l/m² 0 min 0 W/m² 9,7 km/h (2 Bft) 97,87 %
01.03.2026 03:36 4,4 °C 3,9 °C 0,6 °C 89 % 1024,1 hPa 0,0 l/m² 0 min 0 W/m² 12,9 km/h (3 Bft) 100,00 %
01.03.2026 03:38 4,4 °C 3,9 °C 0,6 °C 89 % 1024,1 hPa 0,0 l/m² 0 min 0 W/m² 12,9 km/h (3 Bft) 100,00 %
01.03.2026 03:40 4,4 °C 3,9 °C 0,6 °C 89 % 1024,1 hPa 0,0 l/m² 0 min 0 W/m² 16,1 km/h (3 Bft) 100,00 %
01.03.2026 03:42 4,5 °C 3,9 °C 0,6 °C 89 % 1024,1 hPa 0,0 l/m² 0 min 0 W/m² 12,9 km/h (3 Bft) 100,00 %
01.03.2026 03:44 4,4 °C 3,9 °C 0,6 °C 89 % 1024,1 hPa 0,0 l/m² 0 min 0 W/m² 9,7 km/h (2 Bft) 100,00 %
01.03.2026 03:46 4,4 °C 3,9 °C 0,6 °C 89 % 1024,1 hPa 0,0 l/m² 0 min 0 W/m² 6,4 km/h (2 Bft) 100,00 %
01.03.2026 03:48 4,4 °C 3,3 °C 0,6 °C 89 % 1024,1 hPa 0,0 l/m² 0 min 0 W/m² 6,4 km/h (2 Bft) 100,00 %
01.03.2026 03:50 4,4 °C 3,3 °C 0,6 °C 89 % 1024,2 hPa 0,0 l/m² 0 min 0 W/m² 6,4 km/h (2 Bft) 100,00 %
01.03.2026 03:52 4,4 °C 3,3 °C 0,6 °C 89 % 1024,1 hPa 0,0 l/m² 0 min 0 W/m² 6,4 km/h (2 Bft) 97,87 %
01.03.2026 03:54 4,4 °C 3,3 °C 0,6 °C 89 % 1024,1 hPa 0,0 l/m² 0 min 0 W/m² 3,2 km/h (1 Bft) 97,87 %
01.03.2026 03:56 4,4 °C 3,3 °C 0,6 °C 89 % 1024,1 hPa 0,0 l/m² 0 min 0 W/m² 3,2 km/h (1 Bft) 95,74 %
01.03.2026 03:58 4,4 °C 3,3 °C 0,6 °C 89 % 1024,1 hPa 0,0 l/m² 0 min 0 W/m² 12,9 km/h (3 Bft) 98,00 %
01.03.2026 04:00 4,4 °C 3,3 °C 0,6 °C 89 % 1024,1 hPa 0,0 l/m² 0 min 0 W/m² 6,4 km/h (2 Bft) 95,65 %
01.03.2026 04:02 4,4 °C 3,3 °C 0,6 °C 89 % 1024,1 hPa 0,0 l/m² 0 min 0 W/m² 6,4 km/h (2 Bft) 100,00 %
01.03.2026 04:04 4,4 °C 3,3 °C 0,6 °C 89 % 1024,1 hPa 0,0 l/m² 0 min 0 W/m² 3,2 km/h (1 Bft) 97,87 %
01.03.2026 04:06 4,3 °C 3,3 °C 0,6 °C 89 % 1024,1 hPa 0,0 l/m² 0 min 0 W/m² 3,2 km/h (1 Bft) 51,11 %
01.03.2026 04:08 4,3 °C 3,3 °C 0,6 °C 89 % 1024,1 hPa 0,0 l/m² 0 min 0 W/m² 6,4 km/h (2 Bft) 97,87 %
01.03.2026 04:10 4,3 °C 3,3 °C 0,6 °C 89 % 1024,1 hPa 0,0 l/m² 0 min 0 W/m² 6,4 km/h (2 Bft) 97,83 %
01.03.2026 04:12 4,3 °C 3,3 °C 0,6 °C 89 % 1024,1 hPa 0,0 l/m² 0 min 0 W/m² 6,4 km/h (2 Bft) 97,87 %
01.03.2026 04:14 4,3 °C 3,3 °C 0,6 °C 89 % 1024,1 hPa 0,0 l/m² 0 min 0 W/m² 3,2 km/h (1 Bft) 97,87 %
01.03.2026 04:16 4,3 °C 3,3 °C 0,6 °C 89 % 1024,1 hPa 0,0 l/m² 0 min 0 W/m² 6,4 km/h (2 Bft) 95,74 %
01.03.2026 04:18 4,3 °C 3,3 °C 0,6 °C 89 % 1024,1 hPa 0,0 l/m² 0 min 0 W/m² 9,7 km/h (2 Bft) 94,74 %
01.03.2026 04:20 4,3 °C 3,3 °C 0,6 °C 90 % 1024,1 hPa 0,0 l/m² 0 min 0 W/m² 3,2 km/h (1 Bft) 95,74 %
01.03.2026 04:22 4,3 °C 3,3 °C 0,6 °C 90 % 1024,1 hPa 0,0 l/m² 0 min 0 W/m² 3,2 km/h (1 Bft) 97,87 %
01.03.2026 04:24 4,2 °C 3,3 °C 0,0 °C 90 % 1024,1 hPa 0,0 l/m² 0 min 0 W/m² 3,2 km/h (1 Bft) 97,83 %
01.03.2026 04:26 4,2 °C 3,3 °C 0,0 °C 90 % 1024,1 hPa 0,0 l/m² 0 min 0 W/m² 3,2 km/h (1 Bft) 93,62 %
01.03.2026 04:28 4,2 °C 3,3 °C 0,0 °C 90 % 1024,1 hPa 0,0 l/m² 0 min 0 W/m² 3,2 km/h (1 Bft) 95,74 %
01.03.2026 04:30 4,2 °C 3,3 °C 0,0 °C 90 % 1024,1 hPa 0,0 l/m² 0 min 0 W/m² 3,2 km/h (1 Bft) 97,87 %
01.03.2026 04:32 4,2 °C 3,3 °C 0,0 °C 90 % 1024,1 hPa 0,0 l/m² 0 min 0 W/m² 3,2 km/h (1 Bft) 97,87 %
01.03.2026 04:34 4,2 °C 2,8 °C 0,0 °C 90 % 1024,1 hPa 0,0 l/m² 0 min 0 W/m² 3,2 km/h (1 Bft) 93,62 %
01.03.2026 04:36 4,1 °C 2,8 °C 0,0 °C 90 % 1024,1 hPa 0,0 l/m² 0 min 0 W/m² 3,2 km/h (1 Bft) 95,65 %
01.03.2026 04:38 4,1 °C 2,8 °C 0,0 °C 90 % 1024,1 hPa 0,0 l/m² 0 min 0 W/m² 6,4 km/h (2 Bft) 95,74 %
01.03.2026 04:40 4,1 °C 2,8 °C 0,0 °C 90 % 1024,2 hPa 0,0 l/m² 0 min 0 W/m² 3,2 km/h (1 Bft) 93,62 %
01.03.2026 04:42 4,1 °C 2,8 °C 0,0 °C 90 % 1024,2 hPa 0,0 l/m² 0 min 0 W/m² 3,2 km/h (1 Bft) 93,62 %
01.03.2026 04:44 4,1 °C 2,8 °C 0,0 °C 90 % 1024,1 hPa 0,0 l/m² 0 min 0 W/m² 3,2 km/h (1 Bft) 89,36 %
01.03.2026 04:46 4,1 °C 2,8 °C 0,0 °C 90 % 1024,2 hPa 0,0 l/m² 0 min 0 W/m² 6,4 km/h (2 Bft) 91,49 %
01.03.2026 04:48 4,1 °C 2,8 °C 0,0 °C 90 % 1024,2 hPa 0,0 l/m² 0 min 0 W/m² 6,4 km/h (2 Bft) 91,30 %
01.03.2026 04:50 4,0 °C 2,8 °C 0,0 °C 90 % 1024,2 hPa 0,0 l/m² 0 min 0 W/m² 6,4 km/h (2 Bft) 93,62 %
01.03.2026 04:52 4,0 °C 2,8 °C 0,0 °C 90 % 1024,2 hPa 0,0 l/m² 0 min 0 W/m² 6,4 km/h (2 Bft) 95,74 %
01.03.2026 04:54 3,9 °C 2,8 °C 0,0 °C 90 % 1024,2 hPa 0,0 l/m² 0 min 0 W/m² 3,2 km/h (1 Bft) 95,74 %
01.03.2026 04:56 3,9 °C 2,8 °C 0,0 °C 90 % 1024,2 hPa 0,0 l/m² 0 min 0 W/m² 3,2 km/h (1 Bft) 95,74 %
01.03.2026 04:58 3,9 °C 2,8 °C 0,0 °C 90 % 1024,2 hPa 0,0 l/m² 0 min 0 W/m² 6,4 km/h (2 Bft) 95,74 %
01.03.2026 05:00 3,9 °C 2,8 °C 0,0 °C 90 % 1024,1 hPa 0,0 l/m² 0 min 0 W/m² 6,4 km/h (2 Bft) 95,65 %
01.03.2026 05:02 3,9 °C 2,8 °C 0,0 °C 90 % 1024,1 hPa 0,0 l/m² 0 min 0 W/m² 6,4 km/h (2 Bft) 93,62 %
01.03.2026 05:04 3,9 °C 2,8 °C 0,0 °C 90 % 1024,1 hPa 0,0 l/m² 0 min 0 W/m² 6,4 km/h (2 Bft) 93,62 %
01.03.2026 05:06 3,8 °C 2,8 °C 0,0 °C 90 % 1024,2 hPa 0,0 l/m² 0 min 0 W/m² 3,2 km/h (1 Bft) 94,92 %
01.03.2026 05:08 3,8 °C 2,8 °C 0,0 °C 90 % 1024,1 hPa 0,0 l/m² 0 min 0 W/m² 6,4 km/h (2 Bft) 97,87 %
01.03.2026 05:10 3,8 °C 2,8 °C 0,0 °C 90 % 1024,2 hPa 0,0 l/m² 0 min 0 W/m² 6,4 km/h (2 Bft) 97,14 %
01.03.2026 05:12 3,8 °C 2,8 °C 0,0 °C 90 % 1024,2 hPa 0,0 l/m² 0 min 0 W/m² 3,2 km/h (1 Bft) 100,00 %
01.03.2026 05:14 3,8 °C 2,8 °C 0,0 °C 90 % 1024,2 hPa 0,0 l/m² 0 min 0 W/m² 6,4 km/h (2 Bft) 100,00 %
01.03.2026 05:16 3,8 °C 2,8 °C 0,0 °C 90 % 1024,2 hPa 0,0 l/m² 0 min 0 W/m² 3,2 km/h (1 Bft) 97,87 %
01.03.2026 05:18 3,8 °C 2,8 °C 0,0 °C 90 % 1024,1 hPa 0,0 l/m² 0 min 0 W/m² 6,4 km/h (2 Bft) 100,00 %
01.03.2026 05:20 3,8 °C 2,8 °C 0,0 °C 90 % 1024,1 hPa 0,0 l/m² 0 min 0 W/m² 3,2 km/h (1 Bft) 97,87 %
01.03.2026 05:25 3,8 °C 2,8 °C 0,0 °C 90 % 1024,3 hPa 0,0 l/m² 0 min 0 W/m² 9,7 km/h (2 Bft) 96,10 %
01.03.2026 05:26 3,8 °C 2,8 °C 0,0 °C 90 % 1024,3 hPa 0,0 l/m² 0 min 0 W/m² 6,4 km/h (2 Bft) 100,00 %
01.03.2026 05:28 3,8 °C 2,8 °C 0,0 °C 90 % 1024,2 hPa 0,0 l/m² 0 min 0 W/m² 3,2 km/h (1 Bft) 100,00 %
01.03.2026 05:30 3,8 °C 2,8 °C 0,0 °C 91 % 1024,2 hPa 0,0 l/m² 0 min 0 W/m² 6,4 km/h (2 Bft) 97,87 %
01.03.2026 05:32 3,8 °C 2,8 °C 0,0 °C 91 % 1024,2 hPa 0,0 l/m² 0 min 0 W/m² 6,4 km/h (2 Bft) 100,00 %
01.03.2026 05:34 3,7 °C 2,8 °C 0,0 °C 91 % 1024,2 hPa 0,0 l/m² 0 min 0 W/m² 6,4 km/h (2 Bft) 100,00 %
01.03.2026 05:36 3,7 °C 2,8 °C 0,0 °C 91 % 1024,2 hPa 0,0 l/m² 0 min 0 W/m² 6,4 km/h (2 Bft) 100,00 %
01.03.2026 05:38 3,7 °C 2,8 °C 0,0 °C 91 % 1024,2 hPa 0,0 l/m² 0 min 0 W/m² 6,4 km/h (2 Bft) 100,00 %
01.03.2026 05:40 3,7 °C 2,8 °C 0,0 °C 91 % 1024,2 hPa 0,0 l/m² 0 min 0 W/m² 0,0 km/h (0 Bft) 100,00 %
01.03.2026 05:42 3,7 °C 2,8 °C 0,0 °C 91 % 1024,2 hPa 0,0 l/m² 0 min 0 W/m² 0,0 km/h (0 Bft) 100,00 %
01.03.2026 05:44 3,7 °C 2,8 °C 0,0 °C 91 % 1024,2 hPa 0,0 l/m² 0 min 0 W/m² 3,2 km/h (1 Bft) 100,00 %
01.03.2026 05:46 3,7 °C 2,8 °C 0,0 °C 91 % 1024,2 hPa 0,0 l/m² 0 min 0 W/m² 6,4 km/h (2 Bft) 97,83 %
01.03.2026 05:48 3,7 °C 2,8 °C 0,0 °C 91 % 1024,2 hPa 0,0 l/m² 0 min 0 W/m² 6,4 km/h (2 Bft) 100,00 %
01.03.2026 05:50 3,7 °C 2,8 °C 0,0 °C 91 % 1024,2 hPa 0,0 l/m² 0 min 0 W/m² 6,4 km/h (2 Bft) 100,00 %
01.03.2026 05:52 3,7 °C 2,8 °C 0,0 °C 91 % 1024,1 hPa 0,0 l/m² 0 min 0 W/m² 3,2 km/h (1 Bft) 55,56 %
01.03.2026 05:54 3,7 °C 2,8 °C 0,0 °C 91 % 1024,2 hPa 0,0 l/m² 0 min 0 W/m² 3,2 km/h (1 Bft) 100,00 %
01.03.2026 05:56 3,7 °C 2,8 °C 0,0 °C 91 % 1024,1 hPa 0,0 l/m² 0 min 0 W/m² 6,4 km/h (2 Bft) 100,00 %
01.03.2026 05:58 3,7 °C 2,8 °C 0,0 °C 91 % 1024,1 hPa 0,0 l/m² 0 min 0 W/m² 12,9 km/h (3 Bft) 97,83 %
01.03.2026 06:00 3,6 °C 2,8 °C 0,0 °C 91 % 1024,1 hPa 0,0 l/m² 0 min 0 W/m² 6,4 km/h (2 Bft) 97,87 %
01.03.2026 06:02 3,6 °C 2,8 °C -0,6 °C 91 % 1024,1 hPa 0,0 l/m² 0 min 0 W/m² 6,4 km/h (2 Bft) 97,87 %
01.03.2026 06:04 3,6 °C 2,8 °C -0,6 °C 91 % 1024,1 hPa 0,0 l/m² 0 min 0 W/m² 6,4 km/h (2 Bft) 100,00 %
01.03.2026 06:07 3,6 °C 2,8 °C -0,6 °C 91 % 1024,1 hPa 0,0 l/m² 0 min 0 W/m² 6,4 km/h (2 Bft) 98,61 %
01.03.2026 06:08 3,6 °C 2,8 °C -0,6 °C 91 % 1024,1 hPa 0,0 l/m² 0 min 0 W/m² 6,4 km/h (2 Bft) 100,00 %
01.03.2026 06:12 3,6 °C 2,8 °C -0,6 °C 91 % 1024,1 hPa 0,0 l/m² 0 min 0 W/m² 6,4 km/h (2 Bft) 100,00 %
01.03.2026 06:14 3,6 °C 2,8 °C -0,6 °C 91 % 1024,0 hPa 0,0 l/m² 0 min 0 W/m² 6,4 km/h (2 Bft) 97,87 %
01.03.2026 06:16 3,6 °C 2,8 °C -0,6 °C 91 % 1024,0 hPa 0,0 l/m² 0 min 0 W/m² 6,4 km/h (2 Bft) 100,00 %
01.03.2026 06:18 3,5 °C 2,8 °C -0,6 °C 91 % 1024,1 hPa 0,0 l/m² 0 min 0 W/m² 6,4 km/h (2 Bft) 100,00 %
01.03.2026 06:20 3,5 °C 2,8 °C -0,6 °C 91 % 1024,1 hPa 0,0 l/m² 0 min 0 W/m² 12,9 km/h (3 Bft) 97,37 %
01.03.2026 06:22 3,5 °C 2,8 °C -0,6 °C 91 % 1024,2 hPa 0,0 l/m² 0 min 0 W/m² 6,4 km/h (2 Bft) 97,96 %
01.03.2026 06:24 3,5 °C 2,8 °C -0,6 °C 91 % 1024,1 hPa 0,0 l/m² 0 min 0 W/m² 6,4 km/h (2 Bft) 95,74 %
01.03.2026 06:26 3,5 °C 2,8 °C -0,6 °C 91 % 1024,1 hPa 0,0 l/m² 0 min 0 W/m² 6,4 km/h (2 Bft) 95,74 %
01.03.2026 06:28 3,5 °C 2,8 °C -0,6 °C 91 % 1024,2 hPa 0,0 l/m² 0 min 0 W/m² 6,4 km/h (2 Bft) 97,87 %
01.03.2026 06:30 3,5 °C 2,8 °C -0,6 °C 91 % 1024,2 hPa 0,0 l/m² 0 min 0 W/m² 6,4 km/h (2 Bft) 97,83 %
01.03.2026 06:32 3,4 °C 2,8 °C -0,6 °C 91 % 1024,2 hPa 0,0 l/m² 0 min 0 W/m² 6,4 km/h (2 Bft) 97,87 %
01.03.2026 06:34 3,4 °C 2,8 °C -0,6 °C 91 % 1024,2 hPa 0,0 l/m² 0 min 0 W/m² 6,4 km/h (2 Bft) 95,74 %
01.03.2026 06:36 3,4 °C 2,8 °C -0,6 °C 91 % 1024,2 hPa 0,0 l/m² 0 min 0 W/m² 6,4 km/h (2 Bft) 95,74 %
01.03.2026 06:38 3,4 °C 2,8 °C -0,6 °C 91 % 1024,2 hPa 0,0 l/m² 0 min 0 W/m² 6,4 km/h (2 Bft) 97,87 %
01.03.2026 06:40 3,4 °C 2,8 °C -0,6 °C 91 % 1024,2 hPa 0,0 l/m² 0 min 0 W/m² 6,4 km/h (2 Bft) 95,74 %
01.03.2026 06:42 3,4 °C 2,8 °C -0,6 °C 91 % 1024,2 hPa 0,0 l/m² 0 min 0 W/m² 6,4 km/h (2 Bft) 93,48 %
01.03.2026 06:44 3,4 °C 2,8 °C -0,6 °C 91 % 1024,2 hPa 0,0 l/m² 0 min 0 W/m² 6,4 km/h (2 Bft) 95,74 %
01.03.2026 06:46 3,4 °C 2,8 °C -0,6 °C 91 % 1024,2 hPa 0,0 l/m² 0 min 0 W/m² 12,9 km/h (3 Bft) 93,62 %
01.03.2026 06:48 3,4 °C 2,8 °C -0,6 °C 91 % 1024,2 hPa 0,0 l/m² 0 min 0 W/m² 6,4 km/h (2 Bft) 97,87 %
01.03.2026 06:50 3,4 °C 2,8 °C -0,6 °C 91 % 1024,2 hPa 0,0 l/m² 0 min 0 W/m² 12,9 km/h (3 Bft) 97,87 %
01.03.2026 06:52 3,3 °C 2,8 °C -0,6 °C 92 % 1024,2 hPa 0,0 l/m² 0 min 0 W/m² 12,9 km/h (3 Bft) 97,83 %
01.03.2026 06:54 3,3 °C 2,8 °C -0,6 °C 92 % 1024,2 hPa 0,0 l/m² 0 min 0 W/m² 6,4 km/h (2 Bft) 97,87 %
01.03.2026 06:56 3,3 °C 2,8 °C -0,6 °C 92 % 1024,2 hPa 0,0 l/m² 0 min 0 W/m² 6,4 km/h (2 Bft) 97,87 %
01.03.2026 06:58 3,3 °C 2,8 °C -0,6 °C 92 % 1024,2 hPa 0,0 l/m² 0 min 0 W/m² 12,9 km/h (3 Bft) 93,62 %
01.03.2026 07:00 3,3 °C 2,8 °C -0,6 °C 92 % 1024,2 hPa 0,0 l/m² 0 min 0 W/m² 12,9 km/h (3 Bft) 97,87 %
01.03.2026 07:02 3,3 °C 2,8 °C -0,6 °C 92 % 1024,2 hPa 0,0 l/m² 0 min 0 W/m² 6,4 km/h (2 Bft) 97,87 %
01.03.2026 07:04 3,3 °C 2,2 °C -0,6 °C 92 % 1024,2 hPa 0,0 l/m² 0 min 0 W/m² 9,7 km/h (2 Bft) 95,74 %
01.03.2026 07:06 3,3 °C 2,2 °C -0,6 °C 92 % 1024,2 hPa 0,0 l/m² 0 min 0 W/m² 12,9 km/h (3 Bft) 97,87 %
01.03.2026 07:08 3,3 °C 2,2 °C -0,6 °C 92 % 1024,2 hPa 0,0 l/m² 0 min 0 W/m² 6,4 km/h (2 Bft) 100,00 %
01.03.2026 07:10 3,3 °C 2,2 °C -0,6 °C 92 % 1024,1 hPa 0,0 l/m² 0 min 0 W/m² 6,4 km/h (2 Bft) 97,87 %
01.03.2026 07:12 3,3 °C 2,2 °C -0,6 °C 92 % 1024,1 hPa 0,0 l/m² 0 min 0 W/m² 6,4 km/h (2 Bft) 95,74 %
01.03.2026 07:14 3,2 °C 2,2 °C -0,6 °C 92 % 1024,2 hPa 0,0 l/m² 0 min 0 W/m² 9,7 km/h (2 Bft) 97,87 %
01.03.2026 07:16 3,2 °C 2,2 °C -0,6 °C 92 % 1024,1 hPa 0,0 l/m² 0 min 0 W/m² 6,4 km/h (2 Bft) 95,65 %
01.03.2026 07:18 3,2 °C 2,2 °C -0,6 °C 92 % 1024,1 hPa 0,0 l/m² 0 min 0 W/m² 6,4 km/h (2 Bft) 100,00 %
01.03.2026 07:20 3,2 °C 2,2 °C -0,6 °C 92 % 1024,1 hPa 0,0 l/m² 0 min 0 W/m² 12,9 km/h (3 Bft) 95,74 %
01.03.2026 07:22 3,2 °C 2,2 °C -0,6 °C 92 % 1024,1 hPa 0,0 l/m² 0 min 0 W/m² 6,4 km/h (2 Bft) 97,87 %
01.03.2026 07:24 3,2 °C 2,2 °C -0,6 °C 92 % 1024,1 hPa 0,0 l/m² 0 min 5 W/m² 6,4 km/h (2 Bft) 93,62 %
01.03.2026 07:26 3,2 °C 2,2 °C -1,1 °C 92 % 1024,1 hPa 0,0 l/m² 0 min 5 W/m² 6,4 km/h (2 Bft) 97,87 %
01.03.2026 07:28 3,1 °C 2,2 °C -1,1 °C 92 % 1024,0 hPa 0,0 l/m² 0 min 7 W/m² 12,9 km/h (3 Bft) 95,65 %
01.03.2026 07:30 3,1 °C 2,2 °C -1,1 °C 92 % 1024,1 hPa 0,0 l/m² 0 min 7 W/m² 6,4 km/h (2 Bft) 97,87 %
01.03.2026 07:32 3,1 °C 2,2 °C -1,1 °C 92 % 1024,1 hPa 0,0 l/m² 0 min 9 W/m² 6,4 km/h (2 Bft) 95,74 %
01.03.2026 07:34 3,1 °C 2,2 °C -1,1 °C 92 % 1024,1 hPa 0,0 l/m² 0 min 9 W/m² 6,4 km/h (2 Bft) 97,87 %
01.03.2026 07:36 3,1 °C 2,2 °C -1,1 °C 92 % 1024,1 hPa 0,0 l/m² 0 min 10 W/m² 9,7 km/h (2 Bft) 93,62 %
01.03.2026 07:38 3,1 °C 2,2 °C -1,1 °C 92 % 1024,2 hPa 0,0 l/m² 0 min 11 W/m² 6,4 km/h (2 Bft) 97,87 %
01.03.2026 07:40 3,1 °C 2,2 °C -1,1 °C 92 % 1024,2 hPa 0,0 l/m² 0 min 12 W/m² 6,4 km/h (2 Bft) 97,83 %
01.03.2026 07:42 3,1 °C 2,2 °C -1,1 °C 92 % 1024,2 hPa 0,0 l/m² 0 min 12 W/m² 12,9 km/h (3 Bft) 97,87 %
01.03.2026 07:44 3,1 °C 2,2 °C -1,1 °C 92 % 1024,2 hPa 0,0 l/m² 0 min 14 W/m² 6,4 km/h (2 Bft) 97,87 %
01.03.2026 07:46 3,0 °C 2,2 °C -1,1 °C 92 % 1024,3 hPa 0,0 l/m² 0 min 15 W/m² 6,4 km/h (2 Bft) 97,87 %
01.03.2026 07:48 3,0 °C 2,2 °C -1,1 °C 92 % 1024,3 hPa 0,0 l/m² 0 min 18 W/m² 12,9 km/h (3 Bft) 97,87 %
01.03.2026 07:50 3,0 °C 2,2 °C -1,1 °C 92 % 1024,3 hPa 0,0 l/m² 0 min 19 W/m² 6,4 km/h (2 Bft) 97,87 %
01.03.2026 07:52 3,0 °C 2,2 °C -1,1 °C 92 % 1024,2 hPa 0,0 l/m² 0 min 19 W/m² 6,4 km/h (2 Bft) 97,83 %
01.03.2026 07:54 3,0 °C 2,2 °C -1,1 °C 92 % 1024,2 hPa 0,0 l/m² 0 min 20 W/m² 6,4 km/h (2 Bft) 95,74 %
01.03.2026 07:56 3,0 °C 2,2 °C -0,6 °C 92 % 1024,3 hPa 0,0 l/m² 0 min 21 W/m² 6,4 km/h (2 Bft) 97,87 %
01.03.2026 07:58 3,0 °C 2,2 °C -0,6 °C 92 % 1024,2 hPa 0,0 l/m² 0 min 22 W/m² 6,4 km/h (2 Bft) 97,87 %
01.03.2026 08:00 3,0 °C 2,8 °C -0,6 °C 92 % 1024,2 hPa 0,0 l/m² 0 min 25 W/m² 6,4 km/h (2 Bft) 97,87 %
01.03.2026 08:02 3,0 °C 2,8 °C -0,6 °C 93 % 1024,2 hPa 0,0 l/m² 0 min 27 W/m² 12,9 km/h (3 Bft) 95,65 %
01.03.2026 08:04 3,0 °C 2,8 °C -0,6 °C 93 % 1024,2 hPa 0,0 l/m² 0 min 32 W/m² 6,4 km/h (2 Bft) 95,83 %
01.03.2026 08:06 3,0 °C 2,8 °C -0,6 °C 93 % 1024,2 hPa 0,0 l/m² 0 min 36 W/m² 12,9 km/h (3 Bft) 95,74 %
01.03.2026 08:08 3,0 °C 2,8 °C -0,6 °C 93 % 1024,2 hPa 0,0 l/m² 0 min 41 W/m² 6,4 km/h (2 Bft) 93,62 %
01.03.2026 08:10 3,1 °C 2,8 °C -0,6 °C 93 % 1024,3 hPa 0,0 l/m² 0 min 48 W/m² 12,9 km/h (3 Bft) 93,62 %
01.03.2026 08:12 3,1 °C 2,8 °C -0,6 °C 93 % 1024,3 hPa 0,2 l/m² 0 min 55 W/m² 9,7 km/h (2 Bft) 97,87 %
01.03.2026 08:14 3,1 °C 3,3 °C -0,6 °C 93 % 1024,3 hPa 0,0 l/m² 0 min 58 W/m² 12,9 km/h (3 Bft) 97,83 %
01.03.2026 08:16 3,1 °C 3,3 °C -0,6 °C 93 % 1024,3 hPa 0,0 l/m² 0 min 57 W/m² 19,3 km/h (3 Bft) 97,87 %
01.03.2026 08:18 3,2 °C 3,3 °C 0,0 °C 93 % 1024,3 hPa 0,0 l/m² 0 min 54 W/m² 12,9 km/h (3 Bft) 95,74 %
01.03.2026 08:20 3,2 °C 3,3 °C 0,0 °C 93 % 1024,3 hPa 0,0 l/m² 0 min 53 W/m² 9,7 km/h (2 Bft) 97,87 %
01.03.2026 08:22 3,3 °C 3,3 °C 0,0 °C 93 % 1024,3 hPa 0,0 l/m² 0 min 53 W/m² 16,1 km/h (3 Bft) 97,87 %
01.03.2026 08:24 3,3 °C 3,3 °C 0,0 °C 93 % 1024,3 hPa 0,0 l/m² 0 min 54 W/m² 16,1 km/h (3 Bft) 97,87 %
01.03.2026 08:26 3,3 °C 3,3 °C 0,0 °C 93 % 1024,3 hPa 0,0 l/m² 0 min 54 W/m² 16,1 km/h (3 Bft) 97,83 %
01.03.2026 08:28 3,4 °C 3,9 °C 0,0 °C 94 % 1024,3 hPa 0,0 l/m² 0 min 53 W/m² 16,1 km/h (3 Bft) 97,87 %
01.03.2026 08:30 3,4 °C 3,9 °C 0,0 °C 94 % 1024,3 hPa 0,0 l/m² 0 min 51 W/m² 12,9 km/h (3 Bft) 97,87 %
01.03.2026 08:32 3,5 °C 3,9 °C 0,0 °C 94 % 1024,3 hPa 0,0 l/m² 0 min 51 W/m² 19,3 km/h (3 Bft) 97,87 %
01.03.2026 08:34 3,6 °C 3,9 °C 0,0 °C 93 % 1024,3 hPa 0,0 l/m² 0 min 54 W/m² 16,1 km/h (3 Bft) 100,00 %
01.03.2026 08:36 3,6 °C 3,9 °C 0,0 °C 94 % 1024,3 hPa 0,0 l/m² 0 min 56 W/m² 12,9 km/h (3 Bft) 97,87 %
01.03.2026 08:38 3,6 °C 3,9 °C 0,0 °C 94 % 1024,3 hPa 0,0 l/m² 0 min 59 W/m² 16,1 km/h (3 Bft) 100,00 %
01.03.2026 08:40 3,7 °C 3,9 °C 0,0 °C 94 % 1024,4 hPa 0,0 l/m² 0 min 60 W/m² 19,3 km/h (3 Bft) 100,00 %
01.03.2026 08:42 3,7 °C 3,9 °C 0,0 °C 94 % 1024,4 hPa 0,0 l/m² 0 min 57 W/m² 12,9 km/h (3 Bft) 97,87 %
01.03.2026 08:44 3,7 °C 3,9 °C 0,0 °C 94 % 1024,4 hPa 0,0 l/m² 0 min 54 W/m² 12,9 km/h (3 Bft) 100,00 %
01.03.2026 08:46 3,8 °C 3,9 °C 0,0 °C 94 % 1024,4 hPa 0,0 l/m² 0 min 53 W/m² 12,9 km/h (3 Bft) 100,00 %
01.03.2026 08:48 3,8 °C 3,9 °C 0,6 °C 94 % 1024,4 hPa 0,0 l/m² 0 min 51 W/m² 12,9 km/h (3 Bft) 100,00 %
01.03.2026 08:50 3,8 °C 3,9 °C 0,0 °C 94 % 1024,4 hPa 0,0 l/m² 0 min 54 W/m² 12,9 km/h (3 Bft) 97,83 %
01.03.2026 08:52 3,8 °C 3,9 °C 0,0 °C 94 % 1024,5 hPa 0,0 l/m² 0 min 81 W/m² 16,1 km/h (3 Bft) 97,87 %
01.03.2026 08:54 3,9 °C 3,9 °C 0,0 °C 94 % 1024,5 hPa 0,0 l/m² 0 min 105 W/m² 12,9 km/h (3 Bft) 97,67 %
01.03.2026 08:56 3,9 °C 5,0 °C 0,0 °C 94 % 1024,5 hPa 0,0 l/m² 0 min 75 W/m² 16,1 km/h (3 Bft) 100,00 %
01.03.2026 08:58 4,0 °C 5,6 °C 0,6 °C 94 % 1024,6 hPa 0,0 l/m² 0 min 84 W/m² 6,4 km/h (2 Bft) 100,00 %
01.03.2026 09:00 4,1 °C 5,6 °C 0,6 °C 94 % 1024,6 hPa 0,0 l/m² 0 min 108 W/m² 12,9 km/h (3 Bft) 97,87 %
01.03.2026 09:02 4,1 °C 6,1 °C 0,6 °C 94 % 1024,6 hPa 0,0 l/m² 2 min 174 W/m² 12,9 km/h (3 Bft) 97,62 %
01.03.2026 09:04 4,2 °C 6,1 °C 0,6 °C 94 % 1024,6 hPa 0,0 l/m² 2 min 189 W/m² 12,9 km/h (3 Bft) 96,00 %
01.03.2026 09:06 4,3 °C 6,1 °C 0,6 °C 94 % 1024,6 hPa 0,0 l/m² 2 min 212 W/m² 16,1 km/h (3 Bft) 98,00 %
01.03.2026 09:08 4,3 °C 6,7 °C 0,6 °C 94 % 1024,6 hPa 0,0 l/m² 2 min 201 W/m² 12,9 km/h (3 Bft) 97,87 %
01.03.2026 09:10 4,4 °C 6,7 °C 0,6 °C 94 % 1024,6 hPa 0,0 l/m² 2 min 136 W/m² 22,5 km/h (4 Bft) 93,62 %
01.03.2026 09:12 4,5 °C 6,1 °C 0,6 °C 94 % 1024,5 hPa 0,0 l/m² 2 min 171 W/m² 16,1 km/h (3 Bft) 97,83 %
01.03.2026 09:14 4,6 °C 6,7 °C 1,1 °C 94 % 1024,6 hPa 0,0 l/m² 2 min 170 W/m² 12,9 km/h (3 Bft) 97,62 %
01.03.2026 09:16 4,7 °C 7,2 °C 1,1 °C 94 % 1024,5 hPa 0,0 l/m² 2 min 165 W/m² 16,1 km/h (3 Bft) 98,00 %
01.03.2026 09:18 4,7 °C 7,2 °C 1,1 °C 94 % 1024,4 hPa 0,0 l/m² 0 min 132 W/m² 16,1 km/h (3 Bft) 97,96 %
01.03.2026 09:20 4,8 °C 6,7 °C 1,1 °C 94 % 1024,4 hPa 0,0 l/m² 2 min 160 W/m² 19,3 km/h (3 Bft) 97,87 %
01.03.2026 09:22 4,9 °C 7,2 °C 1,1 °C 94 % 1024,4 hPa 0,0 l/m² 0 min 126 W/m² 19,3 km/h (3 Bft) 95,12 %
01.03.2026 09:24 5,0 °C 7,2 °C 1,1 °C 93 % 1024,4 hPa 0,0 l/m² 0 min 129 W/m² 16,1 km/h (3 Bft) 98,00 %
01.03.2026 09:26 5,1 °C 7,8 °C 1,1 °C 93 % 1024,4 hPa 0,0 l/m² 2 min 202 W/m² 19,3 km/h (3 Bft) 95,92 %
01.03.2026 09:28 5,2 °C 7,8 °C 1,1 °C 93 % 1024,5 hPa 0,0 l/m² 2 min 212 W/m² 12,9 km/h (3 Bft) 97,87 %
01.03.2026 09:30 5,3 °C 7,8 °C 1,7 °C 93 % 1024,4 hPa 0,0 l/m² 2 min 216 W/m² 12,9 km/h (3 Bft) 95,24 %
01.03.2026 09:32 5,4 °C 7,8 °C 1,7 °C 93 % 1024,4 hPa 0,0 l/m² 2 min 208 W/m² 12,9 km/h (3 Bft) 95,92 %
01.03.2026 09:34 5,4 °C 7,2 °C 1,7 °C 93 % 1024,4 hPa 0,0 l/m² 2 min 216 W/m² 22,5 km/h (4 Bft) 96,00 %
01.03.2026 09:36 5,6 °C 7,2 °C 1,7 °C 93 % 1024,5 hPa 0,0 l/m² 2 min 178 W/m² 12,9 km/h (3 Bft) 97,83 %
01.03.2026 09:38 5,7 °C 7,2 °C 1,7 °C 93 % 1024,4 hPa 0,0 l/m² 2 min 177 W/m² 16,1 km/h (3 Bft) 97,62 %
01.03.2026 09:40 5,8 °C 7,8 °C 1,7 °C 93 % 1024,5 hPa 0,0 l/m² 0 min 148 W/m² 9,7 km/h (2 Bft) 98,00 %
01.03.2026 09:42 5,9 °C 7,8 °C 2,2 °C 93 % 1024,5 hPa 0,0 l/m² 2 min 174 W/m² 12,9 km/h (3 Bft) 95,92 %
01.03.2026 09:44 6,0 °C 7,2 °C 2,2 °C 93 % 1024,5 hPa 0,0 l/m² 2 min 209 W/m² 16,1 km/h (3 Bft) 97,87 %
01.03.2026 09:46 6,1 °C 7,8 °C 2,2 °C 92 % 1024,5 hPa 0,0 l/m² 0 min 82 W/m² 19,3 km/h (3 Bft) 97,56 %
01.03.2026 09:48 6,2 °C 8,9 °C 2,2 °C 92 % 1024,5 hPa 0,0 l/m² 0 min 49 W/m² 16,1 km/h (3 Bft) 97,87 %
01.03.2026 09:50 6,3 °C 8,9 °C 2,2 °C 92 % 1024,4 hPa 0,0 l/m² 0 min 107 W/m² 19,3 km/h (3 Bft) 96,00 %
01.03.2026 09:52 6,3 °C 9,4 °C 2,2 °C 91 % 1024,4 hPa 0,0 l/m² 2 min 282 W/m² 12,9 km/h (3 Bft) 97,96 %
01.03.2026 09:54 6,4 °C 8,9 °C 2,2 °C 91 % 1024,4 hPa 0,0 l/m² 2 min 248 W/m² 12,9 km/h (3 Bft) 97,87 %
01.03.2026 09:56 6,5 °C 8,9 °C 2,8 °C 91 % 1024,4 hPa 0,0 l/m² 2 min 201 W/m² 12,9 km/h (3 Bft) 97,62 %
01.03.2026 09:58 6,7 °C 9,4 °C 2,8 °C 91 % 1024,4 hPa 0,0 l/m² 2 min 250 W/m² 9,7 km/h (2 Bft) 97,96 %
01.03.2026 10:00 6,8 °C 11,1 °C 2,8 °C 90 % 1024,4 hPa 0,0 l/m² 2 min 342 W/m² 16,1 km/h (3 Bft) 95,92 %
01.03.2026 10:02 6,8 °C 11,7 °C 3,3 °C 90 % 1024,4 hPa 0,0 l/m² 2 min 329 W/m² 16,1 km/h (3 Bft) 95,74 %
01.03.2026 10:04 7,0 °C 11,7 °C 3,3 °C 90 % 1024,4 hPa 0,0 l/m² 2 min 220 W/m² 12,9 km/h (3 Bft) 94,44 %
01.03.2026 10:06 7,1 °C 11,1 °C 3,3 °C 89 % 1024,4 hPa 0,0 l/m² 2 min 188 W/m² 12,9 km/h (3 Bft) 96,43 %
01.03.2026 10:08 7,2 °C 11,7 °C 3,9 °C 89 % 1024,4 hPa 0,0 l/m² 2 min 232 W/m² 12,9 km/h (3 Bft) 94,00 %
01.03.2026 10:10 7,3 °C 12,2 °C 3,9 °C 89 % 1024,4 hPa 0,0 l/m² 0 min 183 W/m² 12,9 km/h (3 Bft) 95,65 %
01.03.2026 10:12 7,5 °C 12,2 °C 3,9 °C 88 % 1024,4 hPa 0,0 l/m² 0 min 183 W/m² 16,1 km/h (3 Bft) 88,89 %
01.03.2026 10:14 7,6 °C 12,8 °C 4,4 °C 88 % 1024,4 hPa 0,0 l/m² 0 min 141 W/m² 12,9 km/h (3 Bft) 93,48 %
01.03.2026 10:16 7,7 °C 12,2 °C 4,4 °C 87 % 1024,4 hPa 0,0 l/m² 2 min 294 W/m² 22,5 km/h (4 Bft) 89,09 %
01.03.2026 10:18 7,8 °C 12,8 °C 4,4 °C 87 % 1024,4 hPa 0,0 l/m² 2 min 201 W/m² 12,9 km/h (3 Bft) 93,88 %
01.03.2026 10:20 7,9 °C 13,3 °C 4,4 °C 86 % 1024,4 hPa 0,0 l/m² 0 min 62 W/m² 22,5 km/h (4 Bft) 91,84 %
01.03.2026 10:22 8,1 °C 13,9 °C 5,0 °C 86 % 1024,4 hPa 0,0 l/m² 0 min 108 W/m² 19,3 km/h (3 Bft) 94,29 %
01.03.2026 10:24 8,2 °C 14,4 °C 5,0 °C 85 % 1024,4 hPa 0,0 l/m² 2 min 282 W/m² 22,5 km/h (4 Bft) 90,74 %
01.03.2026 10:26 8,3 °C 15,0 °C 5,0 °C 85 % 1024,4 hPa 0,0 l/m² 2 min 326 W/m² 16,1 km/h (3 Bft) 94,00 %
01.03.2026 10:28 8,4 °C 15,0 °C 5,0 °C 84 % 1024,4 hPa 0,0 l/m² 2 min 306 W/m² 16,1 km/h (3 Bft) 91,67 %
01.03.2026 10:30 8,6 °C 15,6 °C 5,0 °C 84 % 1024,4 hPa 0,0 l/m² 2 min 378 W/m² 19,3 km/h (3 Bft) 94,29 %
01.03.2026 10:32 8,7 °C 15,6 °C 5,6 °C 84 % 1024,4 hPa 0,0 l/m² 2 min 406 W/m² 19,3 km/h (3 Bft) 88,89 %
01.03.2026 10:34 8,8 °C 15,6 °C 5,6 °C 83 % 1024,4 hPa 0,0 l/m² 2 min 368 W/m² 16,1 km/h (3 Bft) 94,00 %
01.03.2026 10:36 9,0 °C 16,7 °C 5,6 °C 83 % 1024,4 hPa 0,0 l/m² 2 min 288 W/m² 9,7 km/h (2 Bft) 91,67 %
01.03.2026 10:38 9,1 °C 16,1 °C 5,6 °C 82 % 1024,4 hPa 0,0 l/m² 2 min 386 W/m² 16,1 km/h (3 Bft) 94,29 %
01.03.2026 10:40 9,3 °C 16,1 °C 6,1 °C 82 % 1024,4 hPa 0,0 l/m² 2 min 430 W/m² 22,5 km/h (4 Bft) 96,36 %
01.03.2026 10:42 9,4 °C 15,6 °C 6,1 °C 81 % 1024,4 hPa 0,0 l/m² 2 min 430 W/m² 16,1 km/h (3 Bft) 95,74 %
01.03.2026 10:44 9,5 °C 15,6 °C 6,1 °C 81 % 1024,4 hPa 0,0 l/m² 2 min 418 W/m² 22,5 km/h (4 Bft) 95,65 %
01.03.2026 10:46 9,6 °C 16,1 °C 6,1 °C 80 % 1024,4 hPa 0,0 l/m² 2 min 342 W/m² 16,1 km/h (3 Bft) 89,36 %
01.03.2026 10:48 9,7 °C 16,7 °C 6,1 °C 79 % 1024,4 hPa 0,0 l/m² 2 min 356 W/m² 16,1 km/h (3 Bft) 95,74 %
01.03.2026 10:50 9,9 °C 17,2 °C 6,7 °C 79 % 1024,3 hPa 0,0 l/m² 2 min 430 W/m² 19,3 km/h (3 Bft) 97,87 %
01.03.2026 10:52 10,0 °C 17,2 °C 6,7 °C 79 % 1024,3 hPa 0,0 l/m² 2 min 448 W/m² 12,9 km/h (3 Bft) 95,74 %
01.03.2026 10:54 10,1 °C 18,3 °C 6,7 °C 78 % 1024,3 hPa 0,0 l/m² 2 min 453 W/m² 12,9 km/h (3 Bft) 97,87 %
01.03.2026 10:56 10,3 °C 17,8 °C 7,2 °C 78 % 1024,4 hPa 0,0 l/m² 2 min 457 W/m² 22,5 km/h (4 Bft) 97,83 %
01.03.2026 10:58 10,3 °C 18,3 °C 7,2 °C 78 % 1024,3 hPa 0,0 l/m² 2 min 460 W/m² 16,1 km/h (3 Bft) 97,87 %
01.03.2026 11:00 10,5 °C 18,9 °C 8,3 °C 77 % 1024,3 hPa 0,0 l/m² 2 min 463 W/m² 12,9 km/h (3 Bft) 97,87 %
01.03.2026 11:02 10,6 °C 19,4 °C 9,4 °C 78 % 1024,4 hPa 0,0 l/m² 2 min 466 W/m² 16,1 km/h (3 Bft) 97,87 %
01.03.2026 11:04 10,7 °C 20,0 °C 10,6 °C 78 % 1024,3 hPa 0,0 l/m² 2 min 470 W/m² 9,7 km/h (2 Bft) 95,74 %
01.03.2026 11:06 10,9 °C 20,0 °C 11,7 °C 78 % 1024,3 hPa 0,0 l/m² 2 min 472 W/m² 16,1 km/h (3 Bft) 97,83 %
01.03.2026 11:08 11,1 °C 21,1 °C 12,8 °C 78 % 1024,3 hPa 0,0 l/m² 2 min 475 W/m² 12,9 km/h (3 Bft) 97,92 %
01.03.2026 11:10 11,2 °C 20,6 °C 12,8 °C 77 % 1024,3 hPa 0,0 l/m² 2 min 479 W/m² 16,1 km/h (3 Bft) 97,87 %
01.03.2026 11:12 11,3 °C 20,6 °C 12,8 °C 76 % 1024,3 hPa 0,0 l/m² 2 min 482 W/m² 22,5 km/h (4 Bft) 97,87 %
01.03.2026 11:14 11,4 °C 21,1 °C 12,8 °C 75 % 1024,3 hPa 0,0 l/m² 2 min 485 W/m² 16,1 km/h (3 Bft) 95,74 %
01.03.2026 11:16 11,5 °C 20,0 °C 12,8 °C 75 % 1024,2 hPa 0,0 l/m² 2 min 488 W/m² 16,1 km/h (3 Bft) 95,74 %
01.03.2026 11:18 11,6 °C 20,0 °C 13,3 °C 74 % 1024,2 hPa 0,0 l/m² 2 min 490 W/m² 12,9 km/h (3 Bft) 97,83 %
01.03.2026 11:20 11,7 °C 20,6 °C 13,9 °C 74 % 1024,2 hPa 0,0 l/m² 2 min 493 W/m² 9,7 km/h (2 Bft) 97,87 %
01.03.2026 11:22 11,8 °C 20,6 °C 14,4 °C 74 % 1024,2 hPa 0,0 l/m² 2 min 496 W/m² 22,5 km/h (4 Bft) 97,87 %
01.03.2026 11:24 11,9 °C 19,4 °C 13,9 °C 73 % 1024,2 hPa 0,0 l/m² 2 min 502 W/m² 19,3 km/h (3 Bft) 97,87 %
01.03.2026 11:26 11,9 °C 19,4 °C 13,9 °C 73 % 1024,1 hPa 0,0 l/m² 2 min 503 W/m² 19,3 km/h (3 Bft) 97,87 %
01.03.2026 11:28 12,0 °C 20,0 °C 14,4 °C 73 % 1024,1 hPa 0,0 l/m² 2 min 503 W/m² 16,1 km/h (3 Bft) 97,87 %
01.03.2026 11:30 12,1 °C 20,6 °C 14,4 °C 73 % 1024,1 hPa 0,0 l/m² 2 min 504 W/m² 16,1 km/h (3 Bft) 95,65 %
01.03.2026 11:32 12,2 °C 20,0 °C 14,4 °C 72 % 1024,1 hPa 0,0 l/m² 2 min 508 W/m² 16,1 km/h (3 Bft) 97,87 %
01.03.2026 11:34 12,2 °C 20,6 °C 15,0 °C 72 % 1024,1 hPa 0,0 l/m² 2 min 515 W/m² 16,1 km/h (3 Bft) 97,87 %
01.03.2026 11:36 12,3 °C 21,7 °C 15,6 °C 72 % 1024,1 hPa 0,0 l/m² 2 min 529 W/m² 12,9 km/h (3 Bft) 97,87 %
01.03.2026 11:38 12,4 °C 21,1 °C 15,0 °C 71 % 1024,1 hPa 0,0 l/m² 2 min 533 W/m² 16,1 km/h (3 Bft) 97,87 %
01.03.2026 11:40 12,6 °C 21,1 °C 15,6 °C 71 % 1024,1 hPa 0,0 l/m² 2 min 491 W/m² 12,9 km/h (3 Bft) 97,87 %
01.03.2026 11:42 12,7 °C 20,0 °C 14,4 °C 71 % 1024,1 hPa 0,0 l/m² 2 min 490 W/m² 12,9 km/h (3 Bft) 97,83 %
01.03.2026 11:44 12,7 °C 17,8 °C 12,8 °C 70 % 1024,0 hPa 0,0 l/m² 2 min 382 W/m² 29,0 km/h (5 Bft) 97,87 %
01.03.2026 11:46 12,7 °C 17,2 °C 12,2 °C 69 % 1024,0 hPa 0,0 l/m² 2 min 290 W/m² 16,1 km/h (3 Bft) 93,62 %
01.03.2026 11:48 12,7 °C 16,1 °C 11,7 °C 69 % 1024,1 hPa 0,0 l/m² 2 min 289 W/m² 19,3 km/h (3 Bft) 97,87 %
01.03.2026 11:50 12,8 °C 16,7 °C 12,2 °C 69 % 1024,0 hPa 0,0 l/m² 2 min 253 W/m² 19,3 km/h (3 Bft) 97,87 %
01.03.2026 11:52 12,7 °C 16,7 °C 11,7 °C 69 % 1023,9 hPa 0,0 l/m² 2 min 253 W/m² 12,9 km/h (3 Bft) 97,87 %
01.03.2026 11:54 12,8 °C 17,2 °C 11,7 °C 69 % 1024,0 hPa 0,0 l/m² 0 min 232 W/m² 12,9 km/h (3 Bft) 97,83 %
01.03.2026 11:56 12,8 °C 17,8 °C 12,2 °C 69 % 1024,0 hPa 0,0 l/m² 2 min 295 W/m² 19,3 km/h (3 Bft) 95,74 %
01.03.2026 11:58 12,9 °C 18,3 °C 12,2 °C 69 % 1024,0 hPa 0,0 l/m² 2 min 312 W/m² 19,3 km/h (3 Bft) 95,74 %
01.03.2026 12:00 13,0 °C 18,9 °C 12,8 °C 68 % 1024,0 hPa 0,0 l/m² 2 min 392 W/m² 22,5 km/h (4 Bft) 95,74 %
01.03.2026 12:02 13,1 °C 17,8 °C 12,8 °C 68 % 1024,0 hPa 0,0 l/m² 2 min 656 W/m² 19,3 km/h (3 Bft) 97,87 %
01.03.2026 12:04 13,2 °C 18,3 °C 13,3 °C 68 % 1023,9 hPa 0,0 l/m² 2 min 401 W/m² 16,1 km/h (3 Bft) 95,12 %
01.03.2026 12:07 13,3 °C 16,7 °C 12,2 °C 68 % 1024,0 hPa 0,0 l/m² 3 min 396 W/m² 16,1 km/h (3 Bft) 94,87 %
01.03.2026 12:08 13,3 °C 16,7 °C 12,2 °C 67 % 1024,0 hPa 0,0 l/m² 1 min 396 W/m² 22,5 km/h (4 Bft) 100,00 %
01.03.2026 12:12 13,4 °C 16,7 °C 12,2 °C 68 % 1023,8 hPa 0,0 l/m² 4 min 687 W/m² 19,3 km/h (3 Bft) 95,83 %
01.03.2026 12:14 13,6 °C 16,1 °C 11,7 °C 68 % 1023,8 hPa 0,0 l/m² 2 min 729 W/m² 22,5 km/h (4 Bft) 95,74 %
01.03.2026 12:16 13,7 °C 16,7 °C 11,1 °C 67 % 1023,9 hPa 0,0 l/m² 2 min 361 W/m² 22,5 km/h (4 Bft) 94,44 %
01.03.2026 12:18 13,7 °C 16,7 °C 11,1 °C 65 % 1023,7 hPa 0,0 l/m² 2 min 686 W/m² 19,3 km/h (3 Bft) 94,00 %
01.03.2026 12:20 13,8 °C 17,2 °C 11,7 °C 65 % 1023,7 hPa 0,0 l/m² 2 min 529 W/m² 22,5 km/h (4 Bft) 97,30 %
01.03.2026 12:22 13,9 °C 16,7 °C 11,7 °C 65 % 1023,7 hPa 0,0 l/m² 2 min 654 W/m² 16,1 km/h (3 Bft) 91,30 %
01.03.2026 12:24 13,9 °C 15,6 °C 11,1 °C 65 % 1023,7 hPa 0,0 l/m² 0 min 200 W/m² 25,7 km/h (4 Bft) 94,55 %
01.03.2026 12:26 14,0 °C 16,7 °C 11,7 °C 65 % 1023,7 hPa 0,0 l/m² 0 min 225 W/m² 16,1 km/h (3 Bft) 94,00 %
01.03.2026 12:28 14,0 °C 16,7 °C 11,7 °C 65 % 1023,7 hPa 0,0 l/m² 2 min 282 W/m² 16,1 km/h (3 Bft) 97,22 %
01.03.2026 12:30 14,1 °C 17,2 °C 11,7 °C 65 % 1023,6 hPa 0,0 l/m² 2 min 386 W/m² 19,3 km/h (3 Bft) 97,87 %
01.03.2026 12:32 14,1 °C 17,2 °C 11,7 °C 64 % 1023,6 hPa 0,0 l/m² 2 min 714 W/m² 22,5 km/h (4 Bft) 98,15 %
01.03.2026 12:34 14,1 °C 15,6 °C 11,1 °C 63 % 1023,7 hPa 0,0 l/m² 0 min 252 W/m² 32,2 km/h (5 Bft) 96,00 %
01.03.2026 12:36 13,9 °C 14,4 °C 10,6 °C 63 % 1023,7 hPa 0,0 l/m² 0 min 192 W/m² 16,1 km/h (3 Bft) 95,74 %
01.03.2026 12:38 13,8 °C 15,0 °C 10,0 °C 64 % 1023,6 hPa 0,0 l/m² 0 min 183 W/m² 32,2 km/h (5 Bft) 97,22 %
01.03.2026 12:40 13,6 °C 14,4 °C 10,0 °C 63 % 1023,7 hPa 0,0 l/m² 0 min 237 W/m² 32,2 km/h (5 Bft) 95,74 %
01.03.2026 12:42 13,4 °C 13,9 °C 9,4 °C 62 % 1023,7 hPa 0,0 l/m² 0 min 211 W/m² 38,6 km/h (5 Bft) 96,30 %
01.03.2026 12:44 13,3 °C 13,3 °C 9,4 °C 63 % 1023,6 hPa 0,0 l/m² 0 min 183 W/m² 38,6 km/h (5 Bft) 94,00 %
01.03.2026 12:46 13,2 °C 13,9 °C 9,4 °C 63 % 1023,5 hPa 0,0 l/m² 0 min 209 W/m² 29,0 km/h (5 Bft) 94,44 %
01.03.2026 12:48 13,1 °C 13,3 °C 9,4 °C 63 % 1023,5 hPa 0,0 l/m² 0 min 141 W/m² 19,3 km/h (3 Bft) 95,74 %
01.03.2026 12:50 13,1 °C 14,4 °C 9,4 °C 64 % 1023,5 hPa 0,0 l/m² 0 min 130 W/m² 22,5 km/h (4 Bft) 94,44 %
01.03.2026 12:52 13,1 °C 13,9 °C 9,4 °C 64 % 1023,5 hPa 0,0 l/m² 0 min 136 W/m² 29,0 km/h (5 Bft) 96,00 %
01.03.2026 12:54 13,1 °C 13,9 °C 8,9 °C 64 % 1023,6 hPa 0,0 l/m² 0 min 155 W/m² 29,0 km/h (5 Bft) 97,30 %
01.03.2026 12:56 13,0 °C 13,3 °C 8,9 °C 63 % 1023,6 hPa 0,0 l/m² 0 min 132 W/m² 25,7 km/h (4 Bft) 97,83 %
01.03.2026 12:58 13,0 °C 17,2 °C 8,9 °C 64 % 1023,5 hPa 0,0 l/m² 2 min 475 W/m² 22,5 km/h (4 Bft) 98,18 %
01.03.2026 13:00 13,2 °C 20,0 °C 9,4 °C 65 % 1023,4 hPa 0,0 l/m² 2 min 651 W/m² 19,3 km/h (3 Bft) 98,00 %
01.03.2026 13:02 13,3 °C 18,3 °C 9,4 °C 65 % 1023,3 hPa 0,0 l/m² 2 min 403 W/m² 16,1 km/h (3 Bft) 97,22 %
01.03.2026 13:04 13,4 °C 19,4 °C 9,4 °C 65 % 1023,3 hPa 0,0 l/m² 0 min 169 W/m² 16,1 km/h (3 Bft) 97,96 %
01.03.2026 13:06 13,6 °C 16,1 °C 9,4 °C 63 % 1023,3 hPa 0,0 l/m² 0 min 145 W/m² 29,0 km/h (5 Bft) 94,23 %
01.03.2026 13:08 13,5 °C 16,7 °C 9,4 °C 63 % 1023,3 hPa 0,0 l/m² 0 min 190 W/m² 32,2 km/h (5 Bft) 97,92 %
01.03.2026 13:10 13,6 °C 18,3 °C 9,4 °C 63 % 1023,3 hPa 0,0 l/m² 2 min 661 W/m² 16,1 km/h (3 Bft) 95,74 %
01.03.2026 13:12 13,7 °C 21,1 °C 10,0 °C 64 % 1023,2 hPa 0,0 l/m² 2 min 637 W/m² 12,9 km/h (3 Bft) 98,00 %
01.03.2026 13:14 13,9 °C 21,7 °C 10,0 °C 63 % 1023,2 hPa 0,0 l/m² 2 min 625 W/m² 22,5 km/h (4 Bft) 97,30 %
01.03.2026 13:16 14,1 °C 21,7 °C 10,0 °C 62 % 1023,2 hPa 0,0 l/m² 2 min 636 W/m² 25,7 km/h (4 Bft) 97,87 %
01.03.2026 13:18 14,3 °C 22,2 °C 10,0 °C 62 % 1023,3 hPa 0,0 l/m² 2 min 649 W/m² 25,7 km/h (4 Bft) 98,11 %
01.03.2026 13:20 14,3 °C 21,7 °C 10,0 °C 62 % 1023,2 hPa 0,0 l/m² 2 min 646 W/m² 25,7 km/h (4 Bft) 96,00 %
01.03.2026 13:22 14,4 °C 21,1 °C 10,0 °C 61 % 1023,2 hPa 0,0 l/m² 2 min 640 W/m² 29,0 km/h (5 Bft) 100,00 %
01.03.2026 13:24 14,5 °C 21,1 °C 10,0 °C 61 % 1023,1 hPa 0,0 l/m² 2 min 606 W/m² 22,5 km/h (4 Bft) 100,00 %
01.03.2026 13:26 14,6 °C 18,9 °C 10,0 °C 61 % 1023,1 hPa 0,0 l/m² 2 min 338 W/m² 51,5 km/h (7 Bft) 100,00 %
01.03.2026 13:28 14,5 °C 18,9 °C 10,0 °C 61 % 1023,2 hPa 0,0 l/m² 0 min 179 W/m² 29,0 km/h (5 Bft) 100,00 %
01.03.2026 13:30 14,3 °C 18,3 °C 10,0 °C 61 % 1023,2 hPa 0,0 l/m² 0 min 179 W/m² 41,8 km/h (6 Bft) 100,00 %
01.03.2026 13:32 14,3 °C 17,8 °C 10,0 °C 61 % 1023,2 hPa 0,0 l/m² 0 min 179 W/m² 19,3 km/h (3 Bft) 100,00 %
01.03.2026 13:34 14,3 °C 16,7 °C 10,0 °C 61 % 1023,2 hPa 0,0 l/m² 0 min 179 W/m² 25,7 km/h (4 Bft) 100,00 %
01.03.2026 13:36 14,3 °C 16,1 °C 10,0 °C 61 % 1023,1 hPa 0,0 l/m² 0 min 187 W/m² 22,5 km/h (4 Bft) 98,00 %
01.03.2026 13:38 14,3 °C 18,9 °C 10,0 °C 62 % 1023,1 hPa 0,0 l/m² 2 min 260 W/m² 19,3 km/h (3 Bft) 100,00 %
01.03.2026 13:40 14,4 °C 21,1 °C 10,0 °C 62 % 1023,0 hPa 0,0 l/m² 2 min 670 W/m² 12,9 km/h (3 Bft) 100,00 %
01.03.2026 13:42 14,6 °C 20,6 °C 10,6 °C 62 % 1022,9 hPa 0,0 l/m² 2 min 640 W/m² 22,5 km/h (4 Bft) 100,00 %
01.03.2026 13:44 14,6 °C 20,6 °C 10,6 °C 62 % 1022,9 hPa 0,0 l/m² 2 min 634 W/m² 22,5 km/h (4 Bft) 100,00 %
01.03.2026 13:46 14,7 °C 18,9 °C 10,6 °C 61 % 1022,9 hPa 0,0 l/m² 2 min 550 W/m² 22,5 km/h (4 Bft) 100,00 %
01.03.2026 13:48 14,7 °C 17,2 °C 10,0 °C 61 % 1022,9 hPa 0,0 l/m² 0 min 143 W/m² 19,3 km/h (3 Bft) 100,00 %
01.03.2026 13:50 14,7 °C 16,1 °C 10,0 °C 61 % 1022,9 hPa 0,0 l/m² 0 min 127 W/m² 19,3 km/h (3 Bft) 100,00 %
01.03.2026 13:52 14,6 °C 15,6 °C 10,0 °C 61 % 1022,9 hPa 0,0 l/m² 0 min 194 W/m² 19,3 km/h (3 Bft) 98,11 %
01.03.2026 13:54 14,5 °C 15,0 °C 10,0 °C 61 % 1022,8 hPa 0,0 l/m² 0 min 221 W/m² 25,7 km/h (4 Bft) 100,00 %
01.03.2026 13:56 14,4 °C 15,6 °C 10,0 °C 61 % 1022,7 hPa 0,0 l/m² 2 min 268 W/m² 22,5 km/h (4 Bft) 100,00 %
01.03.2026 13:58 14,3 °C 18,3 °C 10,0 °C 62 % 1022,8 hPa 0,0 l/m² 2 min 430 W/m² 29,0 km/h (5 Bft) 97,87 %
01.03.2026 14:00 14,3 °C 19,4 °C 10,0 °C 62 % 1022,8 hPa 0,0 l/m² 2 min 653 W/m² 25,7 km/h (4 Bft) 96,30 %
01.03.2026 14:02 14,4 °C 20,6 °C 10,0 °C 62 % 1022,7 hPa 0,0 l/m² 2 min 587 W/m² 19,3 km/h (3 Bft) 95,92 %
01.03.2026 14:04 14,6 °C 17,8 °C 10,0 °C 62 % 1022,7 hPa 0,0 l/m² 0 min 194 W/m² 12,9 km/h (3 Bft) 97,37 %
01.03.2026 14:06 14,6 °C 16,7 °C 10,0 °C 62 % 1022,7 hPa 0,0 l/m² 0 min 100 W/m² 19,3 km/h (3 Bft) 97,87 %
01.03.2026 14:08 14,5 °C 15,6 °C 10,0 °C 61 % 1022,8 hPa 0,0 l/m² 0 min 115 W/m² 32,2 km/h (5 Bft) 97,87 %
01.03.2026 14:10 14,3 °C 16,7 °C 9,4 °C 61 % 1022,9 hPa 0,0 l/m² 0 min 116 W/m² 22,5 km/h (4 Bft) 97,87 %
01.03.2026 14:12 14,3 °C 18,9 °C 10,0 °C 62 % 1022,7 hPa 0,0 l/m² 2 min 579 W/m² 16,1 km/h (3 Bft) 97,87 %
01.03.2026 14:14 14,4 °C 20,0 °C 10,0 °C 62 % 1022,7 hPa 0,0 l/m² 2 min 559 W/m² 25,7 km/h (4 Bft) 98,18 %
01.03.2026 14:16 14,4 °C 17,2 °C 10,0 °C 61 % 1022,7 hPa 0,0 l/m² 2 min 390 W/m² 25,7 km/h (4 Bft) 97,37 %
01.03.2026 14:18 14,3 °C 15,6 °C 9,4 °C 61 % 1022,8 hPa 0,0 l/m² 0 min 91 W/m² 29,0 km/h (5 Bft) 97,87 %
01.03.2026 14:20 14,3 °C 16,1 °C 9,4 °C 61 % 1022,7 hPa 0,0 l/m² 0 min 185 W/m² 22,5 km/h (4 Bft) 97,87 %
01.03.2026 14:22 14,3 °C 18,3 °C 9,4 °C 63 % 1022,7 hPa 0,0 l/m² 2 min 344 W/m² 25,7 km/h (4 Bft) 98,21 %
01.03.2026 14:24 14,3 °C 18,3 °C 9,4 °C 62 % 1022,7 hPa 0,0 l/m² 2 min 573 W/m² 19,3 km/h (3 Bft) 97,37 %
01.03.2026 14:26 14,3 °C 16,1 °C 9,4 °C 62 % 1022,6 hPa 0,0 l/m² 2 min 256 W/m² 32,2 km/h (5 Bft) 97,87 %
01.03.2026 14:28 14,3 °C 15,0 °C 9,4 °C 63 % 1022,7 hPa 0,0 l/m² 0 min 104 W/m² 25,7 km/h (4 Bft) 97,87 %
01.03.2026 14:30 14,1 °C 14,4 °C 9,4 °C 62 % 1022,6 hPa 0,0 l/m² 0 min 132 W/m² 22,5 km/h (4 Bft) 96,36 %
01.03.2026 14:32 14,1 °C 15,6 °C 9,4 °C 62 % 1022,7 hPa 0,0 l/m² 0 min 135 W/m² 25,7 km/h (4 Bft) 97,37 %
01.03.2026 14:34 14,1 °C 16,7 °C 9,4 °C 63 % 1022,6 hPa 0,0 l/m² 0 min 135 W/m² 19,3 km/h (3 Bft) 95,74 %
01.03.2026 14:36 14,2 °C 18,9 °C 9,4 °C 63 % 1022,7 hPa 0,0 l/m² 2 min 571 W/m² 19,3 km/h (3 Bft) 100,00 %
01.03.2026 14:38 14,3 °C 19,4 °C 9,4 °C 63 % 1022,6 hPa 0,0 l/m² 2 min 522 W/m² 19,3 km/h (3 Bft) 100,00 %
01.03.2026 14:40 14,3 °C 17,2 °C 9,4 °C 62 % 1022,5 hPa 0,0 l/m² 2 min 526 W/m² 35,4 km/h (5 Bft) 100,00 %
01.03.2026 14:42 14,3 °C 17,2 °C 9,4 °C 62 % 1022,6 hPa 0,0 l/m² 2 min 526 W/m² 29,0 km/h (5 Bft) 100,00 %
01.03.2026 14:44 14,3 °C 17,8 °C 9,4 °C 62 % 1022,6 hPa 0,0 l/m² 2 min 478 W/m² 19,3 km/h (3 Bft) 100,00 %
01.03.2026 14:46 14,3 °C 17,8 °C 10,0 °C 62 % 1022,5 hPa 0,0 l/m² 2 min 330 W/m² 22,5 km/h (4 Bft) 100,00 %
01.03.2026 14:48 14,3 °C 16,1 °C 10,0 °C 61 % 1022,5 hPa 0,0 l/m² 0 min 131 W/m² 19,3 km/h (3 Bft) 97,37 %
01.03.2026 14:50 14,3 °C 14,4 °C 9,4 °C 61 % 1022,5 hPa 0,0 l/m² 0 min 107 W/m² 29,0 km/h (5 Bft) 100,00 %
01.03.2026 14:52 14,3 °C 14,4 °C 9,4 °C 61 % 1022,5 hPa 0,0 l/m² 0 min 99 W/m² 25,7 km/h (4 Bft) 100,00 %
01.03.2026 14:54 14,3 °C 13,9 °C 9,4 °C 62 % 1022,5 hPa 0,0 l/m² 0 min 114 W/m² 16,1 km/h (3 Bft) 100,00 %
01.03.2026 14:56 14,2 °C 13,9 °C 9,4 °C 62 % 1022,5 hPa 0,0 l/m² 0 min 135 W/m² 19,3 km/h (3 Bft) 100,00 %
01.03.2026 14:58 14,1 °C 13,9 °C 9,4 °C 62 % 1022,5 hPa 0,0 l/m² 0 min 156 W/m² 22,5 km/h (4 Bft) 100,00 %
01.03.2026 15:00 14,1 °C 13,9 °C 9,4 °C 62 % 1022,4 hPa 0,0 l/m² 2 min 244 W/m² 16,1 km/h (3 Bft) 100,00 %
01.03.2026 15:02 14,0 °C 13,9 °C 9,4 °C 62 % 1022,4 hPa 0,0 l/m² 0 min 136 W/m² 12,9 km/h (3 Bft) 97,87 %
01.03.2026 15:04 13,9 °C 13,9 °C 9,4 °C 62 % 1022,4 hPa 0,0 l/m² 0 min 139 W/m² 12,9 km/h (3 Bft) 96,36 %
01.03.2026 15:06 14,0 °C 15,6 °C 9,4 °C 63 % 1022,4 hPa 0,0 l/m² 2 min 211 W/m² 19,3 km/h (3 Bft) 100,00 %
01.03.2026 15:08 14,1 °C 15,0 °C 9,4 °C 62 % 1022,2 hPa 0,0 l/m² 2 min 316 W/m² 29,0 km/h (5 Bft) 100,00 %
01.03.2026 15:10 14,0 °C 15,0 °C 9,4 °C 62 % 1022,3 hPa 0,0 l/m² 0 min 171 W/m² 25,7 km/h (4 Bft) 97,87 %
01.03.2026 15:12 14,1 °C 15,0 °C 9,4 °C 62 % 1022,2 hPa 0,0 l/m² 0 min 177 W/m² 29,0 km/h (5 Bft) 97,96 %
01.03.2026 15:14 14,1 °C 16,1 °C 9,4 °C 61 % 1022,3 hPa 0,0 l/m² 2 min 315 W/m² 35,4 km/h (5 Bft) 97,87 %
01.03.2026 15:16 14,2 °C 17,2 °C 10,0 °C 62 % 1022,3 hPa 0,0 l/m² 2 min 396 W/m² 25,7 km/h (4 Bft) 100,00 %
01.03.2026 15:18 14,3 °C 16,7 °C 10,0 °C 61 % 1022,2 hPa 0,0 l/m² 2 min 346 W/m² 29,0 km/h (5 Bft) 100,00 %
01.03.2026 15:20 14,3 °C 16,7 °C 10,0 °C 61 % 1022,2 hPa 0,0 l/m² 2 min 346 W/m² 12,9 km/h (3 Bft) 95,92 %
01.03.2026 15:22 14,3 °C 15,6 °C 10,0 °C 61 % 1022,2 hPa 0,0 l/m² 0 min 140 W/m² 12,9 km/h (3 Bft) 95,74 %
01.03.2026 15:24 14,3 °C 16,7 °C 10,0 °C 61 % 1022,2 hPa 0,0 l/m² 0 min 134 W/m² 22,5 km/h (4 Bft) 94,34 %
01.03.2026 15:26 14,4 °C 16,7 °C 10,0 °C 61 % 1022,1 hPa 0,0 l/m² 0 min 134 W/m² 29,0 km/h (5 Bft) 94,74 %
01.03.2026 15:28 14,4 °C 16,7 °C 10,0 °C 61 % 1022,1 hPa 0,0 l/m² 0 min 134 W/m² 16,1 km/h (3 Bft) 95,92 %
01.03.2026 15:30 14,5 °C 17,2 °C 10,0 °C 61 % 1022,1 hPa 0,0 l/m² 2 min 348 W/m² 25,7 km/h (4 Bft) 95,74 %
01.03.2026 15:32 14,6 °C 18,3 °C 10,0 °C 61 % 1022,1 hPa 0,0 l/m² 2 min 452 W/m² 22,5 km/h (4 Bft) 92,59 %
01.03.2026 15:34 14,7 °C 17,8 °C 10,0 °C 61 % 1022,1 hPa 0,0 l/m² 2 min 438 W/m² 32,2 km/h (5 Bft) 97,37 %
01.03.2026 15:36 14,7 °C 16,1 °C 10,0 °C 60 % 1022,0 hPa 0,0 l/m² 2 min 397 W/m² 22,5 km/h (4 Bft) 93,88 %
01.03.2026 15:38 14,6 °C 15,0 °C 10,0 °C 60 % 1022,1 hPa 0,0 l/m² 0 min 154 W/m² 29,0 km/h (5 Bft) 95,65 %
01.03.2026 15:40 14,6 °C 14,4 °C 9,4 °C 60 % 1022,1 hPa 0,0 l/m² 0 min 110 W/m² 19,3 km/h (3 Bft) 94,44 %
01.03.2026 15:42 14,4 °C 13,9 °C 9,4 °C 60 % 1022,1 hPa 0,0 l/m² 0 min 102 W/m² 22,5 km/h (4 Bft) 97,37 %
01.03.2026 15:44 14,3 °C 13,9 °C 9,4 °C 60 % 1022,0 hPa 0,0 l/m² 0 min 95 W/m² 19,3 km/h (3 Bft) 93,88 %
01.03.2026 15:46 14,3 °C 14,4 °C 9,4 °C 61 % 1022,0 hPa 0,0 l/m² 0 min 97 W/m² 25,7 km/h (4 Bft) 95,74 %
01.03.2026 15:48 14,3 °C 15,6 °C 9,4 °C 60 % 1022,0 hPa 0,0 l/m² 2 min 292 W/m² 19,3 km/h (3 Bft) 96,23 %
01.03.2026 15:50 14,3 °C 16,7 °C 9,4 °C 60 % 1022,0 hPa 0,0 l/m² 2 min 377 W/m² 16,1 km/h (3 Bft) 94,74 %
01.03.2026 15:52 14,3 °C 16,7 °C 9,4 °C 60 % 1022,0 hPa 0,0 l/m² 2 min 332 W/m² 19,3 km/h (3 Bft) 93,88 %
01.03.2026 15:54 14,3 °C 16,7 °C 9,4 °C 60 % 1022,0 hPa 0,0 l/m² 2 min 321 W/m² 19,3 km/h (3 Bft) 93,62 %
01.03.2026 15:56 14,4 °C 17,2 °C 9,4 °C 60 % 1022,0 hPa 0,0 l/m² 2 min 326 W/m² 25,7 km/h (4 Bft) 94,44 %
01.03.2026 15:58 14,5 °C 17,2 °C 9,4 °C 60 % 1022,0 hPa 0,0 l/m² 2 min 328 W/m² 22,5 km/h (4 Bft) 94,74 %
01.03.2026 16:00 14,6 °C 17,2 °C 9,4 °C 60 % 1022,0 hPa 0,0 l/m² 2 min 331 W/m² 12,9 km/h (3 Bft) 91,84 %
01.03.2026 16:02 14,6 °C 17,2 °C 9,4 °C 60 % 1022,0 hPa 0,0 l/m² 2 min 327 W/m² 19,3 km/h (3 Bft) 95,65 %
01.03.2026 16:04 14,6 °C 16,7 °C 9,4 °C 60 % 1022,0 hPa 0,0 l/m² 2 min 319 W/m² 29,0 km/h (5 Bft) 97,96 %
01.03.2026 16:06 14,6 °C 16,1 °C 9,4 °C 60 % 1021,9 hPa 0,0 l/m² 2 min 317 W/m² 22,5 km/h (4 Bft) 96,36 %
01.03.2026 16:08 14,6 °C 15,6 °C 9,4 °C 60 % 1022,0 hPa 0,0 l/m² 2 min 316 W/m² 29,0 km/h (5 Bft) 91,67 %
01.03.2026 16:10 14,4 °C 14,4 °C 9,4 °C 60 % 1022,0 hPa 0,0 l/m² 0 min 136 W/m² 16,1 km/h (3 Bft) 95,74 %
01.03.2026 16:12 14,3 °C 14,4 °C 9,4 °C 60 % 1022,0 hPa 0,0 l/m² 2 min 161 W/m² 22,5 km/h (4 Bft) 97,96 %
01.03.2026 16:14 14,3 °C 13,9 °C 9,4 °C 61 % 1022,0 hPa 0,0 l/m² 2 min 315 W/m² 22,5 km/h (4 Bft) 97,87 %
01.03.2026 16:16 14,3 °C 13,9 °C 9,4 °C 61 % 1022,0 hPa 0,0 l/m² 2 min 327 W/m² 29,0 km/h (5 Bft) 97,22 %
01.03.2026 16:18 14,3 °C 13,9 °C 9,4 °C 61 % 1021,9 hPa 0,0 l/m² 2 min 311 W/m² 22,5 km/h (4 Bft) 98,11 %
01.03.2026 16:20 14,3 °C 13,9 °C 9,4 °C 61 % 1021,9 hPa 0,0 l/m² 2 min 292 W/m² 19,3 km/h (3 Bft) 98,00 %
01.03.2026 16:22 14,3 °C 13,9 °C 9,4 °C 61 % 1021,9 hPa 0,0 l/m² 2 min 281 W/m² 19,3 km/h (3 Bft) 97,96 %
01.03.2026 16:24 14,3 °C 13,9 °C 9,4 °C 61 % 1022,0 hPa 0,0 l/m² 2 min 229 W/m² 29,0 km/h (5 Bft) 97,87 %
01.03.2026 16:26 14,3 °C 13,9 °C 8,9 °C 61 % 1021,9 hPa 0,0 l/m² 2 min 263 W/m² 19,3 km/h (3 Bft) 94,74 %
01.03.2026 16:28 14,3 °C 13,9 °C 8,9 °C 61 % 1022,0 hPa 0,0 l/m² 2 min 206 W/m² 25,7 km/h (4 Bft) 96,30 %
01.03.2026 16:30 14,3 °C 13,9 °C 8,9 °C 61 % 1021,9 hPa 0,0 l/m² 2 min 187 W/m² 25,7 km/h (4 Bft) 98,00 %
01.03.2026 16:32 14,2 °C 13,9 °C 8,9 °C 61 % 1022,0 hPa 0,0 l/m² 2 min 179 W/m² 25,7 km/h (4 Bft) 95,83 %
01.03.2026 16:34 14,1 °C 13,3 °C 8,9 °C 61 % 1021,9 hPa 0,0 l/m² 0 min 97 W/m² 19,3 km/h (3 Bft) 97,87 %
01.03.2026 16:36 14,0 °C 13,3 °C 8,9 °C 61 % 1021,9 hPa 0,0 l/m² 0 min 96 W/m² 22,5 km/h (4 Bft) 97,83 %
01.03.2026 16:38 13,9 °C 13,3 °C 8,9 °C 61 % 1021,9 hPa 0,0 l/m² 0 min 93 W/m² 19,3 km/h (3 Bft) 97,87 %
01.03.2026 16:40 13,9 °C 13,3 °C 8,9 °C 61 % 1021,9 hPa 0,0 l/m² 0 min 81 W/m² 25,7 km/h (4 Bft) 95,74 %
01.03.2026 16:42 13,8 °C 13,3 °C 8,9 °C 61 % 1021,9 hPa 0,0 l/m² 0 min 69 W/m² 16,1 km/h (3 Bft) 97,87 %
01.03.2026 16:44 13,7 °C 12,8 °C 8,9 °C 61 % 1021,9 hPa 0,0 l/m² 0 min 55 W/m² 29,0 km/h (5 Bft) 97,87 %
01.03.2026 16:46 13,7 °C 12,8 °C 8,9 °C 61 % 1021,9 hPa 0,0 l/m² 0 min 49 W/m² 29,0 km/h (5 Bft) 97,87 %
01.03.2026 16:48 13,6 °C 12,8 °C 8,3 °C 62 % 1021,9 hPa 0,0 l/m² 0 min 47 W/m² 29,0 km/h (5 Bft) 95,65 %
01.03.2026 16:50 13,5 °C 12,8 °C 8,3 °C 62 % 1022,0 hPa 0,0 l/m² 0 min 46 W/m² 19,3 km/h (3 Bft) 95,74 %
01.03.2026 16:52 13,4 °C 12,8 °C 8,3 °C 62 % 1022,0 hPa 0,0 l/m² 0 min 48 W/m² 19,3 km/h (3 Bft) 97,87 %
01.03.2026 16:54 13,3 °C 12,8 °C 8,3 °C 62 % 1022,0 hPa 0,0 l/m² 0 min 51 W/m² 19,3 km/h (3 Bft) 95,74 %
01.03.2026 16:56 13,3 °C 12,8 °C 8,3 °C 63 % 1022,0 hPa 0,0 l/m² 0 min 51 W/m² 16,1 km/h (3 Bft) 97,87 %
01.03.2026 16:58 13,2 °C 12,8 °C 8,3 °C 62 % 1022,0 hPa 0,0 l/m² 0 min 52 W/m² 22,5 km/h (4 Bft) 95,74 %
01.03.2026 17:00 13,2 °C 12,8 °C 8,3 °C 62 % 1022,0 hPa 0,0 l/m² 0 min 55 W/m² 19,3 km/h (3 Bft) 97,83 %
01.03.2026 17:02 13,2 °C 12,8 °C 8,3 °C 62 % 1022,0 hPa 0,0 l/m² 0 min 56 W/m² 22,5 km/h (4 Bft) 100,00 %
01.03.2026 17:04 13,1 °C 12,8 °C 8,3 °C 62 % 1022,0 hPa 0,0 l/m² 0 min 56 W/m² 19,3 km/h (3 Bft) 100,00 %
01.03.2026 17:06 13,1 °C 12,8 °C 8,3 °C 62 % 1022,0 hPa 0,0 l/m² 0 min 54 W/m² 12,9 km/h (3 Bft) 97,92 %
01.03.2026 17:08 13,1 °C 12,8 °C 8,3 °C 62 % 1022,0 hPa 0,0 l/m² 0 min 50 W/m² 19,3 km/h (3 Bft) 100,00 %
01.03.2026 17:10 13,1 °C 12,2 °C 8,3 °C 62 % 1022,0 hPa 0,0 l/m² 0 min 46 W/m² 22,5 km/h (4 Bft) 100,00 %
01.03.2026 17:12 13,1 °C 12,2 °C 8,3 °C 63 % 1022,1 hPa 0,0 l/m² 0 min 42 W/m² 12,9 km/h (3 Bft) 100,00 %
01.03.2026 17:14 13,1 °C 12,2 °C 8,3 °C 63 % 1022,0 hPa 0,0 l/m² 0 min 38 W/m² 9,7 km/h (2 Bft) 100,00 %
01.03.2026 17:16 13,1 °C 12,2 °C 8,3 °C 63 % 1022,0 hPa 0,0 l/m² 0 min 32 W/m² 16,1 km/h (3 Bft) 100,00 %
01.03.2026 17:18 13,1 °C 12,2 °C 8,3 °C 63 % 1022,0 hPa 0,0 l/m² 0 min 28 W/m² 19,3 km/h (3 Bft) 100,00 %
01.03.2026 17:20 13,1 °C 12,2 °C 8,3 °C 63 % 1022,0 hPa 0,0 l/m² 0 min 26 W/m² 19,3 km/h (3 Bft) 100,00 %
01.03.2026 17:22 13,1 °C 12,2 °C 8,3 °C 63 % 1022,0 hPa 0,0 l/m² 0 min 25 W/m² 16,1 km/h (3 Bft) 100,00 %
01.03.2026 17:24 13,0 °C 12,2 °C 8,3 °C 63 % 1021,9 hPa 0,0 l/m² 0 min 23 W/m² 19,3 km/h (3 Bft) 100,00 %
01.03.2026 17:26 13,0 °C 12,2 °C 8,3 °C 63 % 1022,0 hPa 0,0 l/m² 0 min 19 W/m² 16,1 km/h (3 Bft) 100,00 %
01.03.2026 17:28 12,9 °C 12,2 °C 8,3 °C 63 % 1021,9 hPa 0,0 l/m² 0 min 17 W/m² 22,5 km/h (4 Bft) 70,21 %
01.03.2026 17:30 12,9 °C 12,2 °C 8,3 °C 63 % 1021,9 hPa 0,0 l/m² 0 min 16 W/m² 12,9 km/h (3 Bft) 84,21 %
01.03.2026 17:32 12,9 °C 12,2 °C 8,3 °C 63 % 1021,9 hPa 0,0 l/m² 0 min 14 W/m² 16,1 km/h (3 Bft) 97,87 %
01.03.2026 17:34 12,9 °C 12,2 °C 8,3 °C 63 % 1021,9 hPa 0,0 l/m² 0 min 14 W/m² 22,5 km/h (4 Bft) 100,00 %
01.03.2026 17:36 12,9 °C 12,2 °C 8,3 °C 63 % 1021,9 hPa 0,0 l/m² 0 min 14 W/m² 16,1 km/h (3 Bft) 100,00 %
01.03.2026 17:38 12,8 °C 12,2 °C 8,3 °C 63 % 1021,9 hPa 0,0 l/m² 0 min 12 W/m² 12,9 km/h (3 Bft) 97,87 %
01.03.2026 17:40 12,8 °C 12,2 °C 7,8 °C 64 % 1021,9 hPa 0,0 l/m² 0 min 12 W/m² 9,7 km/h (2 Bft) 100,00 %
01.03.2026 17:42 12,8 °C 11,7 °C 7,8 °C 64 % 1021,9 hPa 0,0 l/m² 0 min 12 W/m² 0,0 km/h (0 Bft) 97,87 %
01.03.2026 17:44 12,8 °C 11,7 °C 7,8 °C 64 % 1021,9 hPa 0,0 l/m² 0 min 11 W/m² 0,0 km/h (0 Bft) 100,00 %
01.03.2026 17:46 12,7 °C 11,7 °C 7,8 °C 64 % 1021,8 hPa 0,0 l/m² 0 min 11 W/m² 16,1 km/h (3 Bft) 100,00 %
01.03.2026 17:48 12,7 °C 11,7 °C 7,8 °C 64 % 1021,9 hPa 0,0 l/m² 0 min 11 W/m² 12,9 km/h (3 Bft) 97,83 %
01.03.2026 17:50 12,7 °C 11,7 °C 7,8 °C 64 % 1021,8 hPa 0,0 l/m² 0 min 11 W/m² 16,1 km/h (3 Bft) 100,00 %
01.03.2026 17:52 12,7 °C 11,7 °C 7,8 °C 64 % 1021,9 hPa 0,0 l/m² 0 min 12 W/m² 16,1 km/h (3 Bft) 97,87 %
01.03.2026 17:54 12,7 °C 11,7 °C 7,8 °C 64 % 1021,8 hPa 0,0 l/m² 0 min 12 W/m² 19,3 km/h (3 Bft) 100,00 %
01.03.2026 17:56 12,7 °C 11,7 °C 7,8 °C 64 % 1021,9 hPa 0,0 l/m² 0 min 12 W/m² 19,3 km/h (3 Bft) 95,74 %
01.03.2026 17:58 12,6 °C 11,7 °C 7,8 °C 64 % 1021,9 hPa 0,0 l/m² 0 min 14 W/m² 16,1 km/h (3 Bft) 97,87 %
01.03.2026 18:00 12,6 °C 11,7 °C 7,8 °C 64 % 1021,8 hPa 0,0 l/m² 0 min 14 W/m² 16,1 km/h (3 Bft) 93,48 %
01.03.2026 18:02 12,6 °C 11,7 °C 7,8 °C 64 % 1021,8 hPa 0,0 l/m² 0 min 12 W/m² 19,3 km/h (3 Bft) 95,74 %
01.03.2026 18:04 12,6 °C 11,7 °C 7,8 °C 64 % 1021,9 hPa 0,0 l/m² 0 min 10 W/m² 9,7 km/h (2 Bft) 97,96 %
01.03.2026 18:07 12,6 °C 11,7 °C 7,8 °C 64 % 1021,8 hPa 0,0 l/m² 0 min 7 W/m² 19,3 km/h (3 Bft) 98,63 %
01.03.2026 18:08 12,6 °C 11,7 °C 7,8 °C 64 % 1021,8 hPa 0,0 l/m² 0 min 6 W/m² 16,1 km/h (3 Bft) 95,83 %
01.03.2026 18:12 12,6 °C 11,7 °C 7,8 °C 64 % 1021,9 hPa 0,0 l/m² 0 min 5 W/m² 16,1 km/h (3 Bft) 98,21 %
01.03.2026 18:14 12,6 °C 11,7 °C 7,8 °C 64 % 1021,9 hPa 0,0 l/m² 0 min 0 W/m² 9,7 km/h (2 Bft) 97,87 %
01.03.2026 18:16 12,6 °C 11,7 °C 7,8 °C 65 % 1021,9 hPa 0,0 l/m² 0 min 0 W/m² 9,7 km/h (2 Bft) 95,74 %
01.03.2026 18:18 12,6 °C 11,7 °C 7,8 °C 65 % 1021,9 hPa 0,0 l/m² 0 min 0 W/m² 9,7 km/h (2 Bft) 93,48 %
01.03.2026 18:20 12,5 °C 11,7 °C 7,8 °C 65 % 1021,8 hPa 0,0 l/m² 0 min 0 W/m² 12,9 km/h (3 Bft) 93,62 %
01.03.2026 18:22 12,5 °C 11,7 °C 7,8 °C 65 % 1021,9 hPa 0,0 l/m² 0 min 0 W/m² 12,9 km/h (3 Bft) 91,49 %
01.03.2026 18:24 12,4 °C 11,7 °C 7,8 °C 65 % 1021,9 hPa 0,0 l/m² 0 min 0 W/m² 9,7 km/h (2 Bft) 95,74 %
01.03.2026 18:26 12,4 °C 11,7 °C 7,8 °C 65 % 1021,9 hPa 0,0 l/m² 0 min 0 W/m² 9,7 km/h (2 Bft) 95,74 %
01.03.2026 18:28 12,4 °C 11,7 °C 7,8 °C 65 % 1021,9 hPa 0,0 l/m² 0 min 0 W/m² 12,9 km/h (3 Bft) 91,49 %
01.03.2026 18:30 12,4 °C 11,7 °C 7,2 °C 66 % 1021,9 hPa 0,0 l/m² 0 min 0 W/m² 6,4 km/h (2 Bft) 91,30 %
01.03.2026 18:32 12,3 °C 11,1 °C 7,2 °C 66 % 1021,9 hPa 0,0 l/m² 0 min 0 W/m² 6,4 km/h (2 Bft) 93,62 %
01.03.2026 18:34 12,3 °C 11,1 °C 7,2 °C 66 % 1022,0 hPa 0,0 l/m² 0 min 0 W/m² 9,7 km/h (2 Bft) 93,62 %
01.03.2026 18:36 12,3 °C 11,1 °C 7,2 °C 66 % 1021,9 hPa 0,0 l/m² 0 min 0 W/m² 9,7 km/h (2 Bft) 91,49 %
01.03.2026 18:38 12,3 °C 11,1 °C 7,2 °C 66 % 1022,0 hPa 0,0 l/m² 0 min 0 W/m² 9,7 km/h (2 Bft) 91,49 %
01.03.2026 18:40 12,3 °C 11,1 °C 7,2 °C 66 % 1022,0 hPa 0,0 l/m² 0 min 0 W/m² 9,7 km/h (2 Bft) 93,62 %
01.03.2026 18:42 12,3 °C 11,1 °C 7,2 °C 66 % 1021,9 hPa 0,0 l/m² 0 min 0 W/m² 9,7 km/h (2 Bft) 93,48 %
01.03.2026 18:44 12,2 °C 11,1 °C 7,2 °C 66 % 1021,9 hPa 0,0 l/m² 0 min 0 W/m² 9,7 km/h (2 Bft) 93,62 %
01.03.2026 18:46 12,2 °C 11,1 °C 7,2 °C 66 % 1022,0 hPa 0,0 l/m² 0 min 0 W/m² 3,2 km/h (1 Bft) 95,74 %
01.03.2026 18:48 12,2 °C 11,1 °C 7,2 °C 66 % 1021,9 hPa 0,0 l/m² 0 min 0 W/m² 3,2 km/h (1 Bft) 95,74 %
01.03.2026 18:50 12,2 °C 11,1 °C 7,2 °C 66 % 1022,0 hPa 0,0 l/m² 0 min 0 W/m² 3,2 km/h (1 Bft) 95,74 %
01.03.2026 18:52 12,2 °C 11,1 °C 7,2 °C 67 % 1022,0 hPa 0,0 l/m² 0 min 0 W/m² 3,2 km/h (1 Bft) 95,65 %
01.03.2026 18:54 12,2 °C 11,1 °C 7,2 °C 67 % 1021,9 hPa 0,0 l/m² 0 min 0 W/m² 3,2 km/h (1 Bft) 95,65 %
01.03.2026 18:56 12,2 °C 11,1 °C 7,2 °C 67 % 1022,0 hPa 0,0 l/m² 0 min 0 W/m² 3,2 km/h (1 Bft) 93,62 %
01.03.2026 18:58 12,1 °C 11,1 °C 7,2 °C 67 % 1022,0 hPa 0,0 l/m² 0 min 0 W/m² 6,4 km/h (2 Bft) 97,87 %
01.03.2026 19:00 12,1 °C 11,1 °C 7,2 °C 67 % 1021,9 hPa 0,0 l/m² 0 min 0 W/m² 9,7 km/h (2 Bft) 100,00 %
01.03.2026 19:02 12,1 °C 11,1 °C 7,2 °C 67 % 1022,0 hPa 0,0 l/m² 0 min 0 W/m² 6,4 km/h (2 Bft) 100,00 %
01.03.2026 19:04 12,1 °C 11,1 °C 7,2 °C 67 % 1022,0 hPa 0,0 l/m² 0 min 0 W/m² 12,9 km/h (3 Bft) 100,00 %
01.03.2026 19:06 12,1 °C 11,1 °C 7,2 °C 67 % 1022,0 hPa 0,0 l/m² 0 min 0 W/m² 9,7 km/h (2 Bft) 100,00 %
01.03.2026 19:08 12,0 °C 11,1 °C 7,2 °C 68 % 1022,0 hPa 0,0 l/m² 0 min 0 W/m² 6,4 km/h (2 Bft) 97,87 %
01.03.2026 19:10 12,0 °C 11,1 °C 7,2 °C 68 % 1022,1 hPa 0,0 l/m² 0 min 0 W/m² 12,9 km/h (3 Bft) 98,00 %
01.03.2026 19:12 12,0 °C 11,1 °C 7,2 °C 68 % 1022,0 hPa 0,0 l/m² 0 min 0 W/m² 12,9 km/h (3 Bft) 100,00 %
01.03.2026 19:14 11,9 °C 11,1 °C 7,2 °C 68 % 1022,1 hPa 0,0 l/m² 0 min 0 W/m² 12,9 km/h (3 Bft) 100,00 %
01.03.2026 19:16 11,9 °C 11,1 °C 7,2 °C 68 % 1022,0 hPa 0,0 l/m² 0 min 0 W/m² 9,7 km/h (2 Bft) 100,00 %
01.03.2026 19:18 11,9 °C 11,1 °C 7,2 °C 68 % 1022,0 hPa 0,0 l/m² 0 min 0 W/m² 9,7 km/h (2 Bft) 100,00 %
01.03.2026 19:20 11,9 °C 11,1 °C 7,2 °C 68 % 1022,0 hPa 0,0 l/m² 0 min 0 W/m² 6,4 km/h (2 Bft) 100,00 %
01.03.2026 19:22 11,9 °C 11,1 °C 7,2 °C 68 % 1022,0 hPa 0,0 l/m² 0 min 0 W/m² 6,4 km/h (2 Bft) 100,00 %
01.03.2026 19:24 11,9 °C 11,1 °C 7,2 °C 68 % 1022,0 hPa 0,0 l/m² 0 min 0 W/m² 9,7 km/h (2 Bft) 97,87 %
01.03.2026 19:26 11,8 °C 10,6 °C 7,2 °C 69 % 1022,0 hPa 0,0 l/m² 0 min 0 W/m² 3,2 km/h (1 Bft) 100,00 %
01.03.2026 19:28 11,8 °C 10,6 °C 6,7 °C 69 % 1022,1 hPa 0,0 l/m² 0 min 0 W/m² 6,4 km/h (2 Bft) 100,00 %
01.03.2026 19:30 11,8 °C 10,6 °C 6,7 °C 69 % 1022,1 hPa 0,0 l/m² 0 min 0 W/m² 3,2 km/h (1 Bft) 100,00 %
01.03.2026 19:32 11,8 °C 10,6 °C 6,7 °C 69 % 1022,1 hPa 0,0 l/m² 0 min 0 W/m² 0,0 km/h (0 Bft) 97,87 %
01.03.2026 19:34 11,8 °C 10,6 °C 6,7 °C 69 % 1022,2 hPa 0,0 l/m² 0 min 0 W/m² 0,0 km/h (0 Bft) 100,00 %
01.03.2026 19:36 11,7 °C 10,6 °C 6,7 °C 69 % 1022,1 hPa 0,0 l/m² 0 min 0 W/m² 0,0 km/h (0 Bft) 100,00 %
01.03.2026 19:38 11,7 °C 10,6 °C 6,7 °C 69 % 1022,1 hPa 0,0 l/m² 0 min 0 W/m² 0,0 km/h (0 Bft) 100,00 %
01.03.2026 19:40 11,7 °C 10,6 °C 6,7 °C 69 % 1022,1 hPa 0,0 l/m² 0 min 0 W/m² 0,0 km/h (0 Bft) 100,00 %
01.03.2026 19:42 11,7 °C 10,6 °C 6,7 °C 69 % 1022,1 hPa 0,0 l/m² 0 min 0 W/m² 0,0 km/h (0 Bft) 100,00 %
01.03.2026 19:44 11,7 °C 10,6 °C 6,7 °C 69 % 1022,1 hPa 0,0 l/m² 0 min 0 W/m² 0,0 km/h (0 Bft) 100,00 %
01.03.2026 19:46 11,6 °C 10,6 °C 6,7 °C 69 % 1022,1 hPa 0,0 l/m² 0 min 0 W/m² 0,0 km/h (0 Bft) 100,00 %
01.03.2026 19:48 11,6 °C 10,0 °C 6,7 °C 70 % 1022,1 hPa 0,0 l/m² 0 min 0 W/m² 0,0 km/h (0 Bft) 100,00 %
01.03.2026 19:50 11,6 °C 10,0 °C 6,7 °C 70 % 1022,1 hPa 0,0 l/m² 0 min 0 W/m² 0,0 km/h (0 Bft) 100,00 %
01.03.2026 19:52 11,6 °C 10,0 °C 6,1 °C 70 % 1022,1 hPa 0,0 l/m² 0 min 0 W/m² 0,0 km/h (0 Bft) 100,00 %
01.03.2026 19:54 11,6 °C 10,0 °C 6,1 °C 70 % 1022,1 hPa 0,0 l/m² 0 min 0 W/m² 0,0 km/h (0 Bft) 100,00 %
01.03.2026 19:56 11,5 °C 10,0 °C 6,1 °C 70 % 1022,0 hPa 0,0 l/m² 0 min 0 W/m² 0,0 km/h (0 Bft) 95,74 %
01.03.2026 19:58 11,4 °C 10,0 °C 6,1 °C 70 % 1022,1 hPa 0,0 l/m² 0 min 0 W/m² 0,0 km/h (0 Bft) 100,00 %
01.03.2026 20:00 11,4 °C 10,0 °C 6,1 °C 70 % 1022,1 hPa 0,0 l/m² 0 min 0 W/m² 0,0 km/h (0 Bft) 100,00 %
01.03.2026 20:02 11,3 °C 10,0 °C 6,1 °C 71 % 1022,0 hPa 0,0 l/m² 0 min 0 W/m² 12,9 km/h (3 Bft) 100,00 %
01.03.2026 20:04 11,3 °C 10,0 °C 6,1 °C 71 % 1022,1 hPa 0,0 l/m² 0 min 0 W/m² 6,4 km/h (2 Bft) 100,00 %
01.03.2026 20:06 11,3 °C 10,0 °C 6,1 °C 71 % 1022,0 hPa 0,0 l/m² 0 min 0 W/m² 9,7 km/h (2 Bft) 96,55 %
01.03.2026 20:08 11,2 °C 10,0 °C 6,1 °C 71 % 1022,0 hPa 0,0 l/m² 0 min 0 W/m² 6,4 km/h (2 Bft) 97,22 %
01.03.2026 20:10 11,2 °C 10,0 °C 6,1 °C 71 % 1022,0 hPa 0,0 l/m² 0 min 0 W/m² 3,2 km/h (1 Bft) 97,83 %
01.03.2026 20:12 11,1 °C 9,4 °C 6,1 °C 71 % 1022,0 hPa 0,0 l/m² 0 min 0 W/m² 12,9 km/h (3 Bft) 100,00 %
01.03.2026 20:14 11,1 °C 9,4 °C 6,1 °C 71 % 1022,0 hPa 0,0 l/m² 0 min 0 W/m² 3,2 km/h (1 Bft) 100,00 %
01.03.2026 20:16 11,1 °C 9,4 °C 6,1 °C 71 % 1022,0 hPa 0,0 l/m² 0 min 0 W/m² 6,4 km/h (2 Bft) 100,00 %
01.03.2026 20:18 11,0 °C 9,4 °C 6,1 °C 71 % 1022,0 hPa 0,0 l/m² 0 min 0 W/m² 6,4 km/h (2 Bft) 95,74 %
01.03.2026 20:20 10,9 °C 9,4 °C 6,1 °C 71 % 1022,0 hPa 0,0 l/m² 0 min 0 W/m² 6,4 km/h (2 Bft) 97,87 %
01.03.2026 20:22 10,9 °C 9,4 °C 5,6 °C 71 % 1022,0 hPa 0,0 l/m² 0 min 0 W/m² 6,4 km/h (2 Bft) 95,65 %
01.03.2026 20:24 10,9 °C 9,4 °C 5,6 °C 71 % 1022,0 hPa 0,0 l/m² 0 min 0 W/m² 3,2 km/h (1 Bft) 97,87 %
01.03.2026 20:26 10,8 °C 9,4 °C 5,6 °C 72 % 1022,0 hPa 0,0 l/m² 0 min 0 W/m² 12,9 km/h (3 Bft) 97,87 %
01.03.2026 20:28 10,8 °C 9,4 °C 5,6 °C 72 % 1022,0 hPa 0,0 l/m² 0 min 0 W/m² 12,9 km/h (3 Bft) 95,74 %
01.03.2026 20:30 10,7 °C 9,4 °C 5,6 °C 71 % 1022,0 hPa 0,0 l/m² 0 min 0 W/m² 9,7 km/h (2 Bft) 97,87 %
01.03.2026 20:32 10,7 °C 9,4 °C 5,6 °C 71 % 1022,0 hPa 0,0 l/m² 0 min 0 W/m² 12,9 km/h (3 Bft) 97,87 %
01.03.2026 20:34 10,7 °C 9,4 °C 5,6 °C 71 % 1022,0 hPa 0,0 l/m² 0 min 0 W/m² 12,9 km/h (3 Bft) 97,83 %
01.03.2026 20:36 10,6 °C 9,4 °C 5,6 °C 71 % 1022,0 hPa 0,0 l/m² 0 min 0 W/m² 12,9 km/h (3 Bft) 97,87 %
01.03.2026 20:38 10,6 °C 9,4 °C 5,6 °C 71 % 1022,0 hPa 0,0 l/m² 0 min 0 W/m² 9,7 km/h (2 Bft) 95,74 %
01.03.2026 20:40 10,6 °C 9,4 °C 5,6 °C 71 % 1022,1 hPa 0,0 l/m² 0 min 0 W/m² 6,4 km/h (2 Bft) 95,74 %
01.03.2026 20:42 10,6 °C 9,4 °C 5,6 °C 71 % 1022,1 hPa 0,0 l/m² 0 min 0 W/m² 16,1 km/h (3 Bft) 95,74 %
01.03.2026 20:44 10,5 °C 9,4 °C 5,6 °C 71 % 1022,1 hPa 0,0 l/m² 0 min 0 W/m² 6,4 km/h (2 Bft) 93,48 %
01.03.2026 20:46 10,5 °C 9,4 °C 5,6 °C 71 % 1022,1 hPa 0,0 l/m² 0 min 0 W/m² 9,7 km/h (2 Bft) 95,74 %
01.03.2026 20:48 10,5 °C 9,4 °C 5,6 °C 72 % 1022,1 hPa 0,0 l/m² 0 min 0 W/m² 12,9 km/h (3 Bft) 95,74 %
01.03.2026 20:50 10,4 °C 9,4 °C 5,6 °C 72 % 1022,1 hPa 0,0 l/m² 0 min 0 W/m² 6,4 km/h (2 Bft) 97,87 %
01.03.2026 20:52 10,4 °C 9,4 °C 5,6 °C 72 % 1022,2 hPa 0,0 l/m² 0 min 0 W/m² 6,4 km/h (2 Bft) 93,62 %
01.03.2026 20:54 10,4 °C 9,4 °C 5,6 °C 72 % 1022,2 hPa 0,0 l/m² 0 min 0 W/m² 12,9 km/h (3 Bft) 95,74 %
01.03.2026 20:56 10,4 °C 9,4 °C 5,6 °C 72 % 1022,2 hPa 0,0 l/m² 0 min 0 W/m² 6,4 km/h (2 Bft) 93,62 %
01.03.2026 20:58 10,4 °C 9,4 °C 5,6 °C 72 % 1022,2 hPa 0,0 l/m² 0 min 0 W/m² 12,9 km/h (3 Bft) 95,65 %
01.03.2026 21:00 10,3 °C 9,4 °C 5,6 °C 72 % 1022,2 hPa 0,0 l/m² 0 min 0 W/m² 6,4 km/h (2 Bft) 95,74 %
01.03.2026 21:02 10,3 °C 9,4 °C 5,6 °C 72 % 1022,1 hPa 0,0 l/m² 0 min 0 W/m² 6,4 km/h (2 Bft) 95,74 %
01.03.2026 21:04 10,3 °C 9,4 °C 5,6 °C 72 % 1022,2 hPa 0,0 l/m² 0 min 0 W/m² 6,4 km/h (2 Bft) 95,92 %
01.03.2026 21:06 10,3 °C 8,9 °C 5,6 °C 72 % 1022,2 hPa 0,0 l/m² 0 min 0 W/m² 6,4 km/h (2 Bft) 91,38 %
01.03.2026 21:08 10,3 °C 8,9 °C 5,6 °C 72 % 1022,2 hPa 0,0 l/m² 0 min 0 W/m² 6,4 km/h (2 Bft) 97,14 %
01.03.2026 21:10 10,2 °C 8,9 °C 5,6 °C 72 % 1022,3 hPa 0,0 l/m² 0 min 0 W/m² 6,4 km/h (2 Bft) 93,62 %
01.03.2026 21:12 10,2 °C 8,9 °C 5,6 °C 72 % 1022,2 hPa 0,0 l/m² 0 min 0 W/m² 9,7 km/h (2 Bft) 95,74 %
01.03.2026 21:14 10,2 °C 8,9 °C 5,6 °C 72 % 1022,2 hPa 0,0 l/m² 0 min 0 W/m² 9,7 km/h (2 Bft) 93,62 %
01.03.2026 21:16 10,2 °C 8,9 °C 5,6 °C 72 % 1022,4 hPa 0,0 l/m² 0 min 0 W/m² 16,1 km/h (3 Bft) 95,74 %
01.03.2026 21:18 10,1 °C 8,9 °C 5,6 °C 72 % 1022,4 hPa 0,0 l/m² 0 min 0 W/m² 12,9 km/h (3 Bft) 95,74 %
01.03.2026 21:20 10,1 °C 8,9 °C 5,6 °C 73 % 1022,4 hPa 0,0 l/m² 0 min 0 W/m² 6,4 km/h (2 Bft) 97,83 %
01.03.2026 21:22 10,1 °C 8,9 °C 5,6 °C 73 % 1022,4 hPa 0,0 l/m² 0 min 0 W/m² 6,4 km/h (2 Bft) 95,74 %
01.03.2026 21:24 10,1 °C 8,9 °C 5,6 °C 73 % 1022,4 hPa 0,0 l/m² 0 min 0 W/m² 9,7 km/h (2 Bft) 93,62 %
01.03.2026 21:26 10,1 °C 8,9 °C 5,6 °C 73 % 1022,4 hPa 0,0 l/m² 0 min 0 W/m² 6,4 km/h (2 Bft) 93,62 %
01.03.2026 21:28 10,1 °C 8,9 °C 5,6 °C 73 % 1022,4 hPa 0,0 l/m² 0 min 0 W/m² 12,9 km/h (3 Bft) 95,74 %
01.03.2026 21:30 10,1 °C 8,9 °C 5,6 °C 73 % 1022,4 hPa 0,0 l/m² 0 min 0 W/m² 12,9 km/h (3 Bft) 95,74 %
01.03.2026 21:32 10,1 °C 8,9 °C 5,0 °C 73 % 1022,5 hPa 0,0 l/m² 0 min 0 W/m² 6,4 km/h (2 Bft) 97,83 %
01.03.2026 21:34 10,0 °C 8,9 °C 5,0 °C 73 % 1022,5 hPa 0,0 l/m² 0 min 0 W/m² 6,4 km/h (2 Bft) 95,74 %
01.03.2026 21:36 10,0 °C 8,9 °C 5,0 °C 73 % 1022,5 hPa 0,0 l/m² 0 min 0 W/m² 6,4 km/h (2 Bft) 95,74 %
01.03.2026 21:38 9,9 °C 8,9 °C 5,0 °C 73 % 1022,5 hPa 0,0 l/m² 0 min 0 W/m² 9,7 km/h (2 Bft) 97,87 %
01.03.2026 21:40 9,9 °C 8,9 °C 5,0 °C 73 % 1022,5 hPa 0,0 l/m² 0 min 0 W/m² 6,4 km/h (2 Bft) 95,74 %
01.03.2026 21:42 9,9 °C 8,9 °C 5,0 °C 73 % 1022,5 hPa 0,0 l/m² 0 min 0 W/m² 9,7 km/h (2 Bft) 95,65 %
01.03.2026 21:44 9,9 °C 8,9 °C 5,0 °C 73 % 1022,5 hPa 0,0 l/m² 0 min 0 W/m² 9,7 km/h (2 Bft) 97,87 %
01.03.2026 21:46 9,9 °C 8,9 °C 5,0 °C 73 % 1022,5 hPa 0,0 l/m² 0 min 0 W/m² 3,2 km/h (1 Bft) 97,87 %
01.03.2026 21:48 9,9 °C 8,9 °C 5,0 °C 73 % 1022,6 hPa 0,0 l/m² 0 min 0 W/m² 12,9 km/h (3 Bft) 100,00 %
01.03.2026 21:50 9,8 °C 8,9 °C 5,0 °C 73 % 1022,6 hPa 0,0 l/m² 0 min 0 W/m² 6,4 km/h (2 Bft) 100,00 %
01.03.2026 21:52 9,8 °C 8,9 °C 5,0 °C 73 % 1022,6 hPa 0,0 l/m² 0 min 0 W/m² 12,9 km/h (3 Bft) 95,74 %
01.03.2026 21:54 9,8 °C 8,3 °C 5,0 °C 73 % 1022,6 hPa 0,0 l/m² 0 min 0 W/m² 6,4 km/h (2 Bft) 100,00 %
01.03.2026 21:56 9,8 °C 8,3 °C 5,0 °C 73 % 1022,6 hPa 0,0 l/m² 0 min 0 W/m² 3,2 km/h (1 Bft) 97,87 %
01.03.2026 21:58 9,8 °C 8,3 °C 5,0 °C 73 % 1022,5 hPa 0,0 l/m² 0 min 0 W/m² 12,9 km/h (3 Bft) 95,74 %
01.03.2026 22:00 9,8 °C 8,3 °C 5,0 °C 74 % 1022,5 hPa 0,0 l/m² 0 min 0 W/m² 9,7 km/h (2 Bft) 97,87 %
01.03.2026 22:02 9,7 °C 8,3 °C 5,0 °C 74 % 1022,5 hPa 0,0 l/m² 0 min 0 W/m² 6,4 km/h (2 Bft) 100,00 %
01.03.2026 22:04 9,7 °C 8,3 °C 5,0 °C 74 % 1022,5 hPa 0,0 l/m² 0 min 0 W/m² 9,7 km/h (2 Bft) 100,00 %
01.03.2026 22:06 9,7 °C 8,3 °C 5,0 °C 74 % 1022,5 hPa 0,0 l/m² 0 min 0 W/m² 9,7 km/h (2 Bft) 98,31 %
01.03.2026 22:08 9,6 °C 8,3 °C 5,0 °C 74 % 1022,5 hPa 0,0 l/m² 0 min 0 W/m² 9,7 km/h (2 Bft) 100,00 %
01.03.2026 22:10 9,6 °C 8,3 °C 4,4 °C 74 % 1022,5 hPa 0,0 l/m² 0 min 0 W/m² 9,7 km/h (2 Bft) 97,87 %
01.03.2026 22:12 9,6 °C 8,3 °C 4,4 °C 74 % 1022,5 hPa 0,0 l/m² 0 min 0 W/m² 6,4 km/h (2 Bft) 95,74 %
01.03.2026 22:14 9,6 °C 8,3 °C 4,4 °C 74 % 1022,6 hPa 0,0 l/m² 0 min 0 W/m² 9,7 km/h (2 Bft) 97,87 %
01.03.2026 22:16 9,5 °C 7,8 °C 4,4 °C 74 % 1022,6 hPa 0,0 l/m² 0 min 0 W/m² 6,4 km/h (2 Bft) 95,74 %
01.03.2026 22:18 9,4 °C 7,8 °C 4,4 °C 74 % 1022,6 hPa 0,0 l/m² 0 min 0 W/m² 6,4 km/h (2 Bft) 97,83 %
01.03.2026 22:20 9,4 °C 7,8 °C 4,4 °C 75 % 1022,6 hPa 0,0 l/m² 0 min 0 W/m² 3,2 km/h (1 Bft) 95,74 %
01.03.2026 22:22 9,4 °C 7,8 °C 4,4 °C 75 % 1022,6 hPa 0,0 l/m² 0 min 0 W/m² 6,4 km/h (2 Bft) 95,74 %
01.03.2026 22:24 9,3 °C 7,8 °C 4,4 °C 75 % 1022,7 hPa 0,0 l/m² 0 min 0 W/m² 9,7 km/h (2 Bft) 97,87 %
01.03.2026 22:26 9,3 °C 7,8 °C 4,4 °C 75 % 1022,6 hPa 0,0 l/m² 0 min 0 W/m² 6,4 km/h (2 Bft) 97,87 %
01.03.2026 22:28 9,3 °C 7,8 °C 4,4 °C 75 % 1022,7 hPa 0,0 l/m² 0 min 0 W/m² 6,4 km/h (2 Bft) 97,83 %
01.03.2026 22:30 9,2 °C 7,8 °C 4,4 °C 75 % 1022,7 hPa 0,0 l/m² 0 min 0 W/m² 6,4 km/h (2 Bft) 97,87 %
01.03.2026 22:32 9,2 °C 7,8 °C 4,4 °C 75 % 1022,6 hPa 0,0 l/m² 0 min 0 W/m² 6,4 km/h (2 Bft) 95,74 %
01.03.2026 22:34 9,2 °C 7,8 °C 4,4 °C 75 % 1022,7 hPa 0,0 l/m² 0 min 0 W/m² 6,4 km/h (2 Bft) 95,74 %
01.03.2026 22:36 9,1 °C 7,8 °C 4,4 °C 76 % 1022,7 hPa 0,0 l/m² 0 min 0 W/m² 6,4 km/h (2 Bft) 100,00 %
01.03.2026 22:38 9,1 °C 7,8 °C 4,4 °C 76 % 1022,7 hPa 0,0 l/m² 0 min 0 W/m² 6,4 km/h (2 Bft) 100,00 %
01.03.2026 22:40 9,1 °C 7,8 °C 4,4 °C 76 % 1022,6 hPa 0,0 l/m² 0 min 0 W/m² 3,2 km/h (1 Bft) 97,83 %
01.03.2026 22:42 9,0 °C 7,8 °C 3,9 °C 76 % 1022,6 hPa 0,0 l/m² 0 min 0 W/m² 3,2 km/h (1 Bft) 100,00 %
01.03.2026 22:44 9,0 °C 7,8 °C 3,9 °C 76 % 1022,6 hPa 0,0 l/m² 0 min 0 W/m² 6,4 km/h (2 Bft) 100,00 %
01.03.2026 22:46 8,9 °C 7,8 °C 3,9 °C 76 % 1022,6 hPa 0,0 l/m² 0 min 0 W/m² 6,4 km/h (2 Bft) 97,87 %
01.03.2026 22:48 8,9 °C 7,2 °C 3,9 °C 76 % 1022,6 hPa 0,0 l/m² 0 min 0 W/m² 3,2 km/h (1 Bft) 97,87 %
01.03.2026 22:50 8,8 °C 7,2 °C 3,9 °C 76 % 1022,6 hPa 0,0 l/m² 0 min 0 W/m² 3,2 km/h (1 Bft) 97,87 %
01.03.2026 22:52 8,8 °C 7,2 °C 3,9 °C 76 % 1022,6 hPa 0,0 l/m² 0 min 0 W/m² 6,4 km/h (2 Bft) 95,65 %
01.03.2026 22:54 8,8 °C 7,2 °C 3,9 °C 76 % 1022,5 hPa 0,0 l/m² 0 min 0 W/m² 3,2 km/h (1 Bft) 97,87 %
01.03.2026 22:56 8,8 °C 7,2 °C 3,9 °C 77 % 1022,5 hPa 0,0 l/m² 0 min 0 W/m² 3,2 km/h (1 Bft) 97,87 %
01.03.2026 22:58 8,7 °C 7,2 °C 3,9 °C 76 % 1022,5 hPa 0,0 l/m² 0 min 0 W/m² 6,4 km/h (2 Bft) 41,18 %
01.03.2026 23:00 8,7 °C 7,2 °C 3,9 °C 77 % 1022,5 hPa 0,0 l/m² 0 min 0 W/m² 3,2 km/h (1 Bft) 97,62 %
01.03.2026 23:02 8,7 °C 7,2 °C 3,9 °C 77 % 1022,5 hPa 0,0 l/m² 0 min 0 W/m² 6,4 km/h (2 Bft) 97,87 %
01.03.2026 23:04 8,7 °C 7,2 °C 3,9 °C 77 % 1022,5 hPa 0,0 l/m² 0 min 0 W/m² 6,4 km/h (2 Bft) 93,75 %
01.03.2026 23:06 8,6 °C 7,2 °C 3,9 °C 77 % 1022,5 hPa 0,0 l/m² 0 min 0 W/m² 6,4 km/h (2 Bft) 100,00 %
01.03.2026 23:08 8,6 °C 7,2 °C 3,9 °C 77 % 1022,5 hPa 0,0 l/m² 0 min 0 W/m² 6,4 km/h (2 Bft) 100,00 %
01.03.2026 23:10 8,6 °C 7,2 °C 3,9 °C 77 % 1022,5 hPa 0,0 l/m² 0 min 0 W/m² 6,4 km/h (2 Bft) 100,00 %
01.03.2026 23:12 8,6 °C 7,2 °C 3,9 °C 77 % 1022,5 hPa 0,0 l/m² 0 min 0 W/m² 6,4 km/h (2 Bft) 96,97 %
01.03.2026 23:14 8,5 °C 7,2 °C 3,9 °C 77 % 1022,5 hPa 0,0 l/m² 0 min 0 W/m² 3,2 km/h (1 Bft) 100,00 %
01.03.2026 23:16 8,5 °C 7,2 °C 3,9 °C 77 % 1022,5 hPa 0,0 l/m² 0 min 0 W/m² 6,4 km/h (2 Bft) 97,83 %
01.03.2026 23:18 8,4 °C 7,2 °C 3,9 °C 77 % 1022,5 hPa 0,0 l/m² 0 min 0 W/m² 9,7 km/h (2 Bft) 97,87 %
01.03.2026 23:20 8,4 °C 7,2 °C 3,9 °C 77 % 1022,5 hPa 0,0 l/m² 0 min 0 W/m² 6,4 km/h (2 Bft) 95,74 %
01.03.2026 23:22 8,4 °C 7,2 °C 3,9 °C 78 % 1022,5 hPa 0,0 l/m² 0 min 0 W/m² 12,9 km/h (3 Bft) 93,62 %
01.03.2026 23:24 8,4 °C 7,2 °C 3,9 °C 78 % 1022,5 hPa 0,0 l/m² 0 min 0 W/m² 6,4 km/h (2 Bft) 97,87 %
01.03.2026 23:26 8,3 °C 7,2 °C 3,9 °C 78 % 1022,5 hPa 0,0 l/m² 0 min 0 W/m² 6,4 km/h (2 Bft) 97,87 %
01.03.2026 23:28 8,3 °C 7,2 °C 3,9 °C 78 % 1022,5 hPa 0,0 l/m² 0 min 0 W/m² 6,4 km/h (2 Bft) 97,83 %
01.03.2026 23:30 8,3 °C 7,2 °C 3,3 °C 78 % 1022,5 hPa 0,0 l/m² 0 min 0 W/m² 6,4 km/h (2 Bft) 97,87 %
01.03.2026 23:32 8,3 °C 7,2 °C 3,3 °C 78 % 1022,5 hPa 0,0 l/m² 0 min 0 W/m² 3,2 km/h (1 Bft) 100,00 %
01.03.2026 23:34 8,3 °C 6,7 °C 3,3 °C 78 % 1022,5 hPa 0,0 l/m² 0 min 0 W/m² 6,4 km/h (2 Bft) 100,00 %
01.03.2026 23:36 8,2 °C 6,7 °C 3,3 °C 78 % 1022,5 hPa 0,0 l/m² 0 min 0 W/m² 6,4 km/h (2 Bft) 97,87 %
01.03.2026 23:38 8,2 °C 6,7 °C 3,3 °C 78 % 1022,4 hPa 0,0 l/m² 0 min 0 W/m² 6,4 km/h (2 Bft) 97,83 %
01.03.2026 23:40 8,2 °C 6,7 °C 3,3 °C 78 % 1022,4 hPa 0,0 l/m² 0 min 0 W/m² 3,2 km/h (1 Bft) 100,00 %
01.03.2026 23:42 8,1 °C 6,7 °C 3,3 °C 78 % 1022,5 hPa 0,0 l/m² 0 min 0 W/m² 3,2 km/h (1 Bft) 100,00 %
01.03.2026 23:44 8,1 °C 6,7 °C 3,3 °C 78 % 1022,4 hPa 0,0 l/m² 0 min 0 W/m² 6,4 km/h (2 Bft) 100,00 %
01.03.2026 23:46 8,1 °C 6,7 °C 3,3 °C 79 % 1022,4 hPa 0,0 l/m² 0 min 0 W/m² 6,4 km/h (2 Bft) 97,87 %
01.03.2026 23:48 8,1 °C 6,7 °C 3,3 °C 79 % 1022,4 hPa 0,0 l/m² 0 min 0 W/m² 6,4 km/h (2 Bft) 100,00 %
01.03.2026 23:50 8,0 °C 6,7 °C 3,3 °C 79 % 1022,4 hPa 0,0 l/m² 0 min 0 W/m² 6,4 km/h (2 Bft) 100,00 %
01.03.2026 23:52 8,0 °C 6,7 °C 3,3 °C 79 % 1022,5 hPa 0,0 l/m² 0 min 0 W/m² 6,4 km/h (2 Bft) 100,00 %
01.03.2026 23:54 7,9 °C 6,7 °C 3,3 °C 79 % 1022,4 hPa 0,0 l/m² 0 min 0 W/m² 6,4 km/h (2 Bft) 97,87 %
01.03.2026 23:56 7,9 °C 6,7 °C 3,3 °C 79 % 1022,4 hPa 0,0 l/m² 0 min 0 W/m² 6,4 km/h (2 Bft) 97,87 %
01.03.2026 23:58 7,9 °C 6,7 °C 3,3 °C 79 % 1022,5 hPa 0,0 l/m² 0 min 0 W/m² 6,4 km/h (2 Bft) 97,87 %
_ Min-Zeit 07:46 07:04 07:26 15:36 17:46 - - - 01:58 01:14
Minimum _ 3,0 °C 2,2 °C -1,1 °C 60 % 1021,8 hPa - - - 0,0 km/h (0 Bft) 38,24 %
_ Max-Zeit 13:46 13:18 11:36 08:28 08:58 08:12 12:12 12:14 13:26 00:18
Maximum _ 14,7 °C 22,2 °C 15,6 °C 94 % 1024,6 hPa 0,2 l/m² 4 min 729 W/m² 51,5 km/h
SW (7 Bft)
100,00 %
Durchschnitt _ 8,8 °C 9,3 °C 4,8 °C 78 % 1023,3 hPa #0,2 l/m² #5:14 h 232 W/m² 12,3 km/h (3 Bft) 96,85 %
© 2026 W. Hausmann